<?xml version="1.0" encoding="UTF-8" standalone="no" ?>
<gpx xmlns="http://www.topografix.com/GPX/1/1" xmlns:xsi="http://www.w3.org/2001/XMLSchema-instance" xsi:schemaLocation="http://www.topografix.com/GPX/1/1 http://www.topografix.com/GPX/1/1/gpx.xsd" version="1.1" creator="VisuGPX - https://www.visugpx.com">
  <metadata>
    <name>Prélager et ses étangs</name>
    <desc><![CDATA[Circuit en boucle autour de Prélager et du crêt de Chaussitre dans le Pilat]]></desc>
  </metadata>
  <trk>
    <name><![CDATA[PRELAGER LE CREUX18102018]]></name>
    <trkseg>
      <trkpt lat="45.31485" lon="4.45823">
        <ele>1154.68</ele>
        <time>2018-10-18T09:04:15Z</time>
      </trkpt>
      <trkpt lat="45.31489" lon="4.4582">
        <ele>1153.72</ele>
        <time>2018-10-18T09:04:34Z</time>
      </trkpt>
      <trkpt lat="45.31491" lon="4.45828">
        <ele>1154.68</ele>
        <time>2018-10-18T09:04:51Z</time>
      </trkpt>
      <trkpt lat="45.31494" lon="4.45837">
        <ele>1154.68</ele>
        <time>2018-10-18T09:05:08Z</time>
      </trkpt>
      <trkpt lat="45.31497" lon="4.4584">
        <ele>1155.16</ele>
        <time>2018-10-18T09:05:29Z</time>
      </trkpt>
      <trkpt lat="45.315" lon="4.45846">
        <ele>1155.16</ele>
        <time>2018-10-18T09:05:50Z</time>
      </trkpt>
      <trkpt lat="45.31501" lon="4.45842">
        <ele>1155.16</ele>
        <time>2018-10-18T09:06:12Z</time>
      </trkpt>
      <trkpt lat="45.31499" lon="4.45854">
        <ele>1155.16</ele>
        <time>2018-10-18T09:06:34Z</time>
      </trkpt>
      <trkpt lat="45.31502" lon="4.45857">
        <ele>1155.64</ele>
        <time>2018-10-18T09:06:50Z</time>
      </trkpt>
      <trkpt lat="45.31501" lon="4.45854">
        <ele>1155.64</ele>
        <time>2018-10-18T09:07:23Z</time>
      </trkpt>
      <trkpt lat="45.31503" lon="4.45852">
        <ele>1155.64</ele>
        <time>2018-10-18T09:07:44Z</time>
      </trkpt>
      <trkpt lat="45.31502" lon="4.45853">
        <ele>1155.64</ele>
        <time>2018-10-18T09:08:05Z</time>
      </trkpt>
      <trkpt lat="45.31502" lon="4.45858">
        <ele>1156.6</ele>
        <time>2018-10-18T09:08:25Z</time>
      </trkpt>
      <trkpt lat="45.31503" lon="4.45859">
        <ele>1156.6</ele>
        <time>2018-10-18T09:08:41Z</time>
      </trkpt>
      <trkpt lat="45.31504" lon="4.45862">
        <ele>1157.08</ele>
        <time>2018-10-18T09:08:57Z</time>
      </trkpt>
      <trkpt lat="45.31506" lon="4.45872">
        <ele>1158.05</ele>
        <time>2018-10-18T09:09:16Z</time>
      </trkpt>
      <trkpt lat="45.31504" lon="4.45878">
        <ele>1158.53</ele>
        <time>2018-10-18T09:09:34Z</time>
      </trkpt>
      <trkpt lat="45.31497" lon="4.45886">
        <ele>1158.53</ele>
        <time>2018-10-18T09:09:58Z</time>
      </trkpt>
      <trkpt lat="45.3148" lon="4.45894">
        <ele>1158.53</ele>
        <time>2018-10-18T09:10:19Z</time>
      </trkpt>
      <trkpt lat="45.3146" lon="4.45906">
        <ele>1158.53</ele>
        <time>2018-10-18T09:10:43Z</time>
      </trkpt>
      <trkpt lat="45.31455" lon="4.45909">
        <ele>1158.53</ele>
        <time>2018-10-18T09:10:49Z</time>
      </trkpt>
      <trkpt lat="45.31436" lon="4.45928">
        <ele>1158.05</ele>
        <time>2018-10-18T09:11:14Z</time>
      </trkpt>
      <trkpt lat="45.31426" lon="4.45943">
        <ele>1157.56</ele>
        <time>2018-10-18T09:11:29Z</time>
      </trkpt>
      <trkpt lat="45.31418" lon="4.45974">
        <ele>1158.05</ele>
        <time>2018-10-18T09:11:52Z</time>
      </trkpt>
      <trkpt lat="45.31413" lon="4.46">
        <ele>1158.53</ele>
        <time>2018-10-18T09:12:11Z</time>
      </trkpt>
      <trkpt lat="45.31407" lon="4.4603">
        <ele>1158.53</ele>
        <time>2018-10-18T09:12:33Z</time>
      </trkpt>
      <trkpt lat="45.31404" lon="4.4606">
        <ele>1159.01</ele>
        <time>2018-10-18T09:12:54Z</time>
      </trkpt>
      <trkpt lat="45.31406" lon="4.46091">
        <ele>1158.53</ele>
        <time>2018-10-18T09:13:16Z</time>
      </trkpt>
      <trkpt lat="45.31409" lon="4.46128">
        <ele>1158.05</ele>
        <time>2018-10-18T09:13:41Z</time>
      </trkpt>
      <trkpt lat="45.31411" lon="4.46148">
        <ele>1158.05</ele>
        <time>2018-10-18T09:13:55Z</time>
      </trkpt>
      <trkpt lat="45.31415" lon="4.46171">
        <ele>1157.56</ele>
        <time>2018-10-18T09:14:13Z</time>
      </trkpt>
      <trkpt lat="45.31416" lon="4.46172">
        <ele>1158.05</ele>
        <time>2018-10-18T09:14:32Z</time>
      </trkpt>
      <trkpt lat="45.31415" lon="4.46179">
        <ele>1158.05</ele>
        <time>2018-10-18T09:14:52Z</time>
      </trkpt>
      <trkpt lat="45.31414" lon="4.46182">
        <ele>1157.56</ele>
        <time>2018-10-18T09:14:54Z</time>
      </trkpt>
      <trkpt lat="45.31417" lon="4.46216">
        <ele>1157.08</ele>
        <time>2018-10-18T09:15:13Z</time>
      </trkpt>
      <trkpt lat="45.31416" lon="4.46248">
        <ele>1155.16</ele>
        <time>2018-10-18T09:15:32Z</time>
      </trkpt>
      <trkpt lat="45.31415" lon="4.4625">
        <ele>1155.16</ele>
        <time>2018-10-18T09:15:36Z</time>
      </trkpt>
      <trkpt lat="45.31416" lon="4.46269">
        <ele>1154.2</ele>
        <time>2018-10-18T09:15:50Z</time>
      </trkpt>
      <trkpt lat="45.31424" lon="4.46302">
        <ele>1153.72</ele>
        <time>2018-10-18T09:16:11Z</time>
      </trkpt>
      <trkpt lat="45.31435" lon="4.46327">
        <ele>1152.76</ele>
        <time>2018-10-18T09:16:33Z</time>
      </trkpt>
      <trkpt lat="45.31444" lon="4.46362">
        <ele>1152.28</ele>
        <time>2018-10-18T09:16:54Z</time>
      </trkpt>
      <trkpt lat="45.31457" lon="4.46395">
        <ele>1151.8</ele>
        <time>2018-10-18T09:17:18Z</time>
      </trkpt>
      <trkpt lat="45.31465" lon="4.46405">
        <ele>1151.8</ele>
        <time>2018-10-18T09:17:26Z</time>
      </trkpt>
      <trkpt lat="45.3149" lon="4.46417">
        <ele>1152.28</ele>
        <time>2018-10-18T09:17:51Z</time>
      </trkpt>
      <trkpt lat="45.31511" lon="4.46437">
        <ele>1152.76</ele>
        <time>2018-10-18T09:18:15Z</time>
      </trkpt>
      <trkpt lat="45.31518" lon="4.46445">
        <ele>1153.24</ele>
        <time>2018-10-18T09:18:25Z</time>
      </trkpt>
      <trkpt lat="45.31537" lon="4.46474">
        <ele>1152.28</ele>
        <time>2018-10-18T09:18:47Z</time>
      </trkpt>
      <trkpt lat="45.31545" lon="4.46501">
        <ele>1152.76</ele>
        <time>2018-10-18T09:19:07Z</time>
      </trkpt>
      <trkpt lat="45.31557" lon="4.46516">
        <ele>1153.24</ele>
        <time>2018-10-18T09:19:23Z</time>
      </trkpt>
      <trkpt lat="45.31565" lon="4.46524">
        <ele>1153.24</ele>
        <time>2018-10-18T09:19:43Z</time>
      </trkpt>
      <trkpt lat="45.31574" lon="4.46524">
        <ele>1152.76</ele>
        <time>2018-10-18T09:20:06Z</time>
      </trkpt>
      <trkpt lat="45.31589" lon="4.46529">
        <ele>1152.76</ele>
        <time>2018-10-18T09:20:21Z</time>
      </trkpt>
      <trkpt lat="45.31612" lon="4.46539">
        <ele>1151.8</ele>
        <time>2018-10-18T09:20:41Z</time>
      </trkpt>
      <trkpt lat="45.31628" lon="4.46555">
        <ele>1151.8</ele>
        <time>2018-10-18T09:20:59Z</time>
      </trkpt>
      <trkpt lat="45.3164" lon="4.46583">
        <ele>1152.28</ele>
        <time>2018-10-18T09:21:23Z</time>
      </trkpt>
      <trkpt lat="45.31642" lon="4.46591">
        <ele>1151.8</ele>
        <time>2018-10-18T09:21:29Z</time>
      </trkpt>
      <trkpt lat="45.31648" lon="4.46625">
        <ele>1151.32</ele>
        <time>2018-10-18T09:21:53Z</time>
      </trkpt>
      <trkpt lat="45.31655" lon="4.46653">
        <ele>1151.32</ele>
        <time>2018-10-18T09:22:14Z</time>
      </trkpt>
      <trkpt lat="45.31661" lon="4.46679">
        <ele>1151.8</ele>
        <time>2018-10-18T09:22:32Z</time>
      </trkpt>
      <trkpt lat="45.31668" lon="4.46705">
        <ele>1152.76</ele>
        <time>2018-10-18T09:22:51Z</time>
      </trkpt>
      <trkpt lat="45.31672" lon="4.46729">
        <ele>1154.2</ele>
        <time>2018-10-18T09:23:10Z</time>
      </trkpt>
      <trkpt lat="45.31676" lon="4.46749">
        <ele>1155.16</ele>
        <time>2018-10-18T09:23:28Z</time>
      </trkpt>
      <trkpt lat="45.31678" lon="4.46774">
        <ele>1156.6</ele>
        <time>2018-10-18T09:23:51Z</time>
      </trkpt>
      <trkpt lat="45.31685" lon="4.46796">
        <ele>1157.56</ele>
        <time>2018-10-18T09:24:10Z</time>
      </trkpt>
      <trkpt lat="45.31705" lon="4.46824">
        <ele>1158.05</ele>
        <time>2018-10-18T09:24:33Z</time>
      </trkpt>
      <trkpt lat="45.3172" lon="4.46843">
        <ele>1158.53</ele>
        <time>2018-10-18T09:24:53Z</time>
      </trkpt>
      <trkpt lat="45.3173" lon="4.46862">
        <ele>1159.01</ele>
        <time>2018-10-18T09:25:15Z</time>
      </trkpt>
      <trkpt lat="45.31729" lon="4.46893">
        <ele>1160.45</ele>
        <time>2018-10-18T09:25:36Z</time>
      </trkpt>
      <trkpt lat="45.31732" lon="4.46916">
        <ele>1162.37</ele>
        <time>2018-10-18T09:25:57Z</time>
      </trkpt>
      <trkpt lat="45.31733" lon="4.46938">
        <ele>1164.29</ele>
        <time>2018-10-18T09:26:17Z</time>
      </trkpt>
      <trkpt lat="45.31738" lon="4.4696">
        <ele>1166.22</ele>
        <time>2018-10-18T09:26:36Z</time>
      </trkpt>
      <trkpt lat="45.31742" lon="4.46981">
        <ele>1167.18</ele>
        <time>2018-10-18T09:26:54Z</time>
      </trkpt>
      <trkpt lat="45.31758" lon="4.47005">
        <ele>1168.14</ele>
        <time>2018-10-18T09:27:18Z</time>
      </trkpt>
      <trkpt lat="45.31772" lon="4.47034">
        <ele>1169.1</ele>
        <time>2018-10-18T09:27:38Z</time>
      </trkpt>
      <trkpt lat="45.31788" lon="4.47057">
        <ele>1169.58</ele>
        <time>2018-10-18T09:27:57Z</time>
      </trkpt>
      <trkpt lat="45.3181" lon="4.47082">
        <ele>1169.1</ele>
        <time>2018-10-18T09:28:24Z</time>
      </trkpt>
      <trkpt lat="45.31825" lon="4.47098">
        <ele>1169.1</ele>
        <time>2018-10-18T09:28:44Z</time>
      </trkpt>
      <trkpt lat="45.31839" lon="4.47114">
        <ele>1168.62</ele>
        <time>2018-10-18T09:29:03Z</time>
      </trkpt>
      <trkpt lat="45.31856" lon="4.47134">
        <ele>1168.62</ele>
        <time>2018-10-18T09:29:25Z</time>
      </trkpt>
      <trkpt lat="45.31872" lon="4.47161">
        <ele>1168.62</ele>
        <time>2018-10-18T09:29:46Z</time>
      </trkpt>
      <trkpt lat="45.31887" lon="4.47183">
        <ele>1169.1</ele>
        <time>2018-10-18T09:30:07Z</time>
      </trkpt>
      <trkpt lat="45.31904" lon="4.47201">
        <ele>1168.14</ele>
        <time>2018-10-18T09:30:27Z</time>
      </trkpt>
      <trkpt lat="45.31922" lon="4.4722">
        <ele>1167.18</ele>
        <time>2018-10-18T09:30:47Z</time>
      </trkpt>
      <trkpt lat="45.31937" lon="4.47246">
        <ele>1167.18</ele>
        <time>2018-10-18T09:31:07Z</time>
      </trkpt>
      <trkpt lat="45.31948" lon="4.47268">
        <ele>1166.22</ele>
        <time>2018-10-18T09:31:26Z</time>
      </trkpt>
      <trkpt lat="45.31955" lon="4.47292">
        <ele>1166.7</ele>
        <time>2018-10-18T09:31:48Z</time>
      </trkpt>
      <trkpt lat="45.31961" lon="4.47327">
        <ele>1167.18</ele>
        <time>2018-10-18T09:32:10Z</time>
      </trkpt>
      <trkpt lat="45.31964" lon="4.47358">
        <ele>1167.66</ele>
        <time>2018-10-18T09:32:30Z</time>
      </trkpt>
      <trkpt lat="45.31971" lon="4.47387">
        <ele>1168.62</ele>
        <time>2018-10-18T09:32:50Z</time>
      </trkpt>
      <trkpt lat="45.31975" lon="4.47408">
        <ele>1169.1</ele>
        <time>2018-10-18T09:33:06Z</time>
      </trkpt>
      <trkpt lat="45.31983" lon="4.47428">
        <ele>1169.58</ele>
        <time>2018-10-18T09:33:23Z</time>
      </trkpt>
      <trkpt lat="45.31995" lon="4.47447">
        <ele>1170.54</ele>
        <time>2018-10-18T09:33:41Z</time>
      </trkpt>
      <trkpt lat="45.32" lon="4.47446">
        <ele>1170.54</ele>
        <time>2018-10-18T09:34:08Z</time>
      </trkpt>
      <trkpt lat="45.32" lon="4.47447">
        <ele>1170.54</ele>
        <time>2018-10-18T09:34:45Z</time>
      </trkpt>
      <trkpt lat="45.32006" lon="4.47457">
        <ele>1171.02</ele>
        <time>2018-10-18T09:35:14Z</time>
      </trkpt>
      <trkpt lat="45.32018" lon="4.47467">
        <ele>1171.5</ele>
        <time>2018-10-18T09:35:38Z</time>
      </trkpt>
      <trkpt lat="45.32034" lon="4.47482">
        <ele>1171.98</ele>
        <time>2018-10-18T09:35:58Z</time>
      </trkpt>
      <trkpt lat="45.32045" lon="4.47505">
        <ele>1172.47</ele>
        <time>2018-10-18T09:36:19Z</time>
      </trkpt>
      <trkpt lat="45.3205" lon="4.47528">
        <ele>1173.43</ele>
        <time>2018-10-18T09:36:37Z</time>
      </trkpt>
      <trkpt lat="45.3206" lon="4.47552">
        <ele>1174.39</ele>
        <time>2018-10-18T09:36:56Z</time>
      </trkpt>
      <trkpt lat="45.32069" lon="4.47576">
        <ele>1175.35</ele>
        <time>2018-10-18T09:37:14Z</time>
      </trkpt>
      <trkpt lat="45.32074" lon="4.47602">
        <ele>1176.31</ele>
        <time>2018-10-18T09:37:33Z</time>
      </trkpt>
      <trkpt lat="45.32082" lon="4.47629">
        <ele>1177.75</ele>
        <time>2018-10-18T09:37:54Z</time>
      </trkpt>
      <trkpt lat="45.32082" lon="4.47633">
        <ele>1177.75</ele>
        <time>2018-10-18T09:38:16Z</time>
      </trkpt>
      <trkpt lat="45.32076" lon="4.47622">
        <ele>1177.75</ele>
        <time>2018-10-18T09:38:36Z</time>
      </trkpt>
      <trkpt lat="45.32078" lon="4.47625">
        <ele>1177.75</ele>
        <time>2018-10-18T09:39:05Z</time>
      </trkpt>
      <trkpt lat="45.32079" lon="4.47623">
        <ele>1177.75</ele>
        <time>2018-10-18T09:39:30Z</time>
      </trkpt>
      <trkpt lat="45.32071" lon="4.47632">
        <ele>1179.19</ele>
        <time>2018-10-18T09:39:46Z</time>
      </trkpt>
      <trkpt lat="45.32055" lon="4.47648">
        <ele>1180.64</ele>
        <time>2018-10-18T09:40:03Z</time>
      </trkpt>
      <trkpt lat="45.32038" lon="4.47656">
        <ele>1182.08</ele>
        <time>2018-10-18T09:40:19Z</time>
      </trkpt>
      <trkpt lat="45.32024" lon="4.47667">
        <ele>1183.52</ele>
        <time>2018-10-18T09:40:36Z</time>
      </trkpt>
      <trkpt lat="45.32005" lon="4.47678">
        <ele>1185.44</ele>
        <time>2018-10-18T09:40:58Z</time>
      </trkpt>
      <trkpt lat="45.32002" lon="4.47681">
        <ele>1185.44</ele>
        <time>2018-10-18T09:41:03Z</time>
      </trkpt>
      <trkpt lat="45.31992" lon="4.47681">
        <ele>1186.4</ele>
        <time>2018-10-18T09:41:13Z</time>
      </trkpt>
      <trkpt lat="45.31975" lon="4.47683">
        <ele>1187.37</ele>
        <time>2018-10-18T09:41:29Z</time>
      </trkpt>
      <trkpt lat="45.31955" lon="4.47679">
        <ele>1188.81</ele>
        <time>2018-10-18T09:41:45Z</time>
      </trkpt>
      <trkpt lat="45.31938" lon="4.47681">
        <ele>1189.29</ele>
        <time>2018-10-18T09:42:01Z</time>
      </trkpt>
      <trkpt lat="45.31921" lon="4.47683">
        <ele>1189.77</ele>
        <time>2018-10-18T09:42:18Z</time>
      </trkpt>
      <trkpt lat="45.31903" lon="4.47691">
        <ele>1190.73</ele>
        <time>2018-10-18T09:42:36Z</time>
      </trkpt>
      <trkpt lat="45.31891" lon="4.47698">
        <ele>1191.69</ele>
        <time>2018-10-18T09:42:52Z</time>
      </trkpt>
      <trkpt lat="45.31876" lon="4.47704">
        <ele>1192.65</ele>
        <time>2018-10-18T09:43:10Z</time>
      </trkpt>
      <trkpt lat="45.31857" lon="4.47706">
        <ele>1193.61</ele>
        <time>2018-10-18T09:43:27Z</time>
      </trkpt>
      <trkpt lat="45.3184" lon="4.47713">
        <ele>1193.61</ele>
        <time>2018-10-18T09:43:45Z</time>
      </trkpt>
      <trkpt lat="45.31824" lon="4.47724">
        <ele>1195.06</ele>
        <time>2018-10-18T09:44:03Z</time>
      </trkpt>
      <trkpt lat="45.31811" lon="4.47735">
        <ele>1196.02</ele>
        <time>2018-10-18T09:44:19Z</time>
      </trkpt>
      <trkpt lat="45.318" lon="4.47744">
        <ele>1196.98</ele>
        <time>2018-10-18T09:44:34Z</time>
      </trkpt>
      <trkpt lat="45.31787" lon="4.47757">
        <ele>1198.42</ele>
        <time>2018-10-18T09:44:49Z</time>
      </trkpt>
      <trkpt lat="45.31768" lon="4.47778">
        <ele>1199.38</ele>
        <time>2018-10-18T09:45:10Z</time>
      </trkpt>
      <trkpt lat="45.31756" lon="4.47784">
        <ele>1199.38</ele>
        <time>2018-10-18T09:45:23Z</time>
      </trkpt>
      <trkpt lat="45.31742" lon="4.47802">
        <ele>1199.86</ele>
        <time>2018-10-18T09:45:42Z</time>
      </trkpt>
      <trkpt lat="45.31726" lon="4.47817">
        <ele>1199.86</ele>
        <time>2018-10-18T09:46:00Z</time>
      </trkpt>
      <trkpt lat="45.31716" lon="4.47826">
        <ele>1199.38</ele>
        <time>2018-10-18T09:46:11Z</time>
      </trkpt>
      <trkpt lat="45.31702" lon="4.47839">
        <ele>1198.9</ele>
        <time>2018-10-18T09:46:28Z</time>
      </trkpt>
      <trkpt lat="45.31696" lon="4.47863">
        <ele>1199.86</ele>
        <time>2018-10-18T09:46:45Z</time>
      </trkpt>
      <trkpt lat="45.31678" lon="4.47886">
        <ele>1199.38</ele>
        <time>2018-10-18T09:47:05Z</time>
      </trkpt>
      <trkpt lat="45.31665" lon="4.47907">
        <ele>1198.9</ele>
        <time>2018-10-18T09:47:22Z</time>
      </trkpt>
      <trkpt lat="45.31647" lon="4.4792">
        <ele>1199.38</ele>
        <time>2018-10-18T09:47:40Z</time>
      </trkpt>
      <trkpt lat="45.31628" lon="4.4793">
        <ele>1200.34</ele>
        <time>2018-10-18T09:47:59Z</time>
      </trkpt>
      <trkpt lat="45.31619" lon="4.47937">
        <ele>1200.34</ele>
        <time>2018-10-18T09:48:11Z</time>
      </trkpt>
      <trkpt lat="45.31598" lon="4.47946">
        <ele>1200.34</ele>
        <time>2018-10-18T09:48:30Z</time>
      </trkpt>
      <trkpt lat="45.31578" lon="4.4795">
        <ele>1200.34</ele>
        <time>2018-10-18T09:48:50Z</time>
      </trkpt>
      <trkpt lat="45.31565" lon="4.47951">
        <ele>1199.86</ele>
        <time>2018-10-18T09:49:09Z</time>
      </trkpt>
      <trkpt lat="45.3156" lon="4.47948">
        <ele>1199.86</ele>
        <time>2018-10-18T09:49:26Z</time>
      </trkpt>
      <trkpt lat="45.31551" lon="4.47932">
        <ele>1198.42</ele>
        <time>2018-10-18T09:49:45Z</time>
      </trkpt>
      <trkpt lat="45.31542" lon="4.47919">
        <ele>1197.94</ele>
        <time>2018-10-18T09:50:02Z</time>
      </trkpt>
      <trkpt lat="45.31526" lon="4.47902">
        <ele>1197.46</ele>
        <time>2018-10-18T09:50:21Z</time>
      </trkpt>
      <trkpt lat="45.31517" lon="4.47891">
        <ele>1196.5</ele>
        <time>2018-10-18T09:50:40Z</time>
      </trkpt>
      <trkpt lat="45.31503" lon="4.47878">
        <ele>1195.06</ele>
        <time>2018-10-18T09:51:01Z</time>
      </trkpt>
      <trkpt lat="45.31484" lon="4.47872">
        <ele>1194.58</ele>
        <time>2018-10-18T09:51:20Z</time>
      </trkpt>
      <trkpt lat="45.31472" lon="4.47867">
        <ele>1194.09</ele>
        <time>2018-10-18T09:51:36Z</time>
      </trkpt>
      <trkpt lat="45.31454" lon="4.47856">
        <ele>1193.61</ele>
        <time>2018-10-18T09:51:55Z</time>
      </trkpt>
      <trkpt lat="45.31441" lon="4.47846">
        <ele>1193.13</ele>
        <time>2018-10-18T09:52:10Z</time>
      </trkpt>
      <trkpt lat="45.31424" lon="4.47844">
        <ele>1192.65</ele>
        <time>2018-10-18T09:52:29Z</time>
      </trkpt>
      <trkpt lat="45.3142" lon="4.47843">
        <ele>1192.65</ele>
        <time>2018-10-18T09:52:33Z</time>
      </trkpt>
      <trkpt lat="45.31408" lon="4.47836">
        <ele>1192.17</ele>
        <time>2018-10-18T09:52:49Z</time>
      </trkpt>
      <trkpt lat="45.31395" lon="4.47822">
        <ele>1191.21</ele>
        <time>2018-10-18T09:53:07Z</time>
      </trkpt>
      <trkpt lat="45.31372" lon="4.4781">
        <ele>1190.73</ele>
        <time>2018-10-18T09:53:28Z</time>
      </trkpt>
      <trkpt lat="45.31358" lon="4.47807">
        <ele>1190.73</ele>
        <time>2018-10-18T09:53:45Z</time>
      </trkpt>
      <trkpt lat="45.31338" lon="4.47802">
        <ele>1190.25</ele>
        <time>2018-10-18T09:54:04Z</time>
      </trkpt>
      <trkpt lat="45.31318" lon="4.47792">
        <ele>1190.73</ele>
        <time>2018-10-18T09:54:24Z</time>
      </trkpt>
      <trkpt lat="45.31317" lon="4.47792">
        <ele>1190.73</ele>
        <time>2018-10-18T09:54:25Z</time>
      </trkpt>
      <trkpt lat="45.31302" lon="4.47788">
        <ele>1189.77</ele>
        <time>2018-10-18T09:54:41Z</time>
      </trkpt>
      <trkpt lat="45.3128" lon="4.47783">
        <ele>1190.25</ele>
        <time>2018-10-18T09:55:02Z</time>
      </trkpt>
      <trkpt lat="45.31259" lon="4.47781">
        <ele>1190.73</ele>
        <time>2018-10-18T09:55:20Z</time>
      </trkpt>
      <trkpt lat="45.31246" lon="4.47778">
        <ele>1191.21</ele>
        <time>2018-10-18T09:55:38Z</time>
      </trkpt>
      <trkpt lat="45.31233" lon="4.47773">
        <ele>1191.69</ele>
        <time>2018-10-18T09:55:55Z</time>
      </trkpt>
      <trkpt lat="45.3123" lon="4.47766">
        <ele>1192.17</ele>
        <time>2018-10-18T09:56:14Z</time>
      </trkpt>
      <trkpt lat="45.31212" lon="4.4776">
        <ele>1192.17</ele>
        <time>2018-10-18T09:56:32Z</time>
      </trkpt>
      <trkpt lat="45.31197" lon="4.47758">
        <ele>1192.17</ele>
        <time>2018-10-18T09:56:47Z</time>
      </trkpt>
      <trkpt lat="45.31179" lon="4.47752">
        <ele>1191.69</ele>
        <time>2018-10-18T09:57:05Z</time>
      </trkpt>
      <trkpt lat="45.3116" lon="4.47747">
        <ele>1191.21</ele>
        <time>2018-10-18T09:57:24Z</time>
      </trkpt>
      <trkpt lat="45.31143" lon="4.4774">
        <ele>1191.21</ele>
        <time>2018-10-18T09:57:43Z</time>
      </trkpt>
      <trkpt lat="45.31128" lon="4.47737">
        <ele>1190.25</ele>
        <time>2018-10-18T09:58:00Z</time>
      </trkpt>
      <trkpt lat="45.31112" lon="4.47733">
        <ele>1190.25</ele>
        <time>2018-10-18T09:58:18Z</time>
      </trkpt>
      <trkpt lat="45.31095" lon="4.47726">
        <ele>1190.25</ele>
        <time>2018-10-18T09:58:33Z</time>
      </trkpt>
      <trkpt lat="45.31076" lon="4.47721">
        <ele>1190.25</ele>
        <time>2018-10-18T09:58:52Z</time>
      </trkpt>
      <trkpt lat="45.31056" lon="4.47722">
        <ele>1190.25</ele>
        <time>2018-10-18T09:59:10Z</time>
      </trkpt>
      <trkpt lat="45.31041" lon="4.47723">
        <ele>1190.25</ele>
        <time>2018-10-18T09:59:26Z</time>
      </trkpt>
      <trkpt lat="45.31024" lon="4.47729">
        <ele>1190.25</ele>
        <time>2018-10-18T09:59:43Z</time>
      </trkpt>
      <trkpt lat="45.31008" lon="4.47732">
        <ele>1190.73</ele>
        <time>2018-10-18T10:00:02Z</time>
      </trkpt>
      <trkpt lat="45.3099" lon="4.47731">
        <ele>1190.73</ele>
        <time>2018-10-18T10:00:20Z</time>
      </trkpt>
      <trkpt lat="45.30976" lon="4.47737">
        <ele>1191.69</ele>
        <time>2018-10-18T10:00:38Z</time>
      </trkpt>
      <trkpt lat="45.30958" lon="4.47739">
        <ele>1192.65</ele>
        <time>2018-10-18T10:00:57Z</time>
      </trkpt>
      <trkpt lat="45.3094" lon="4.47745">
        <ele>1193.13</ele>
        <time>2018-10-18T10:01:18Z</time>
      </trkpt>
      <trkpt lat="45.30924" lon="4.47747">
        <ele>1193.61</ele>
        <time>2018-10-18T10:01:36Z</time>
      </trkpt>
      <trkpt lat="45.30908" lon="4.47746">
        <ele>1193.61</ele>
        <time>2018-10-18T10:01:52Z</time>
      </trkpt>
      <trkpt lat="45.30893" lon="4.47739">
        <ele>1194.09</ele>
        <time>2018-10-18T10:02:10Z</time>
      </trkpt>
      <trkpt lat="45.30881" lon="4.47732">
        <ele>1192.65</ele>
        <time>2018-10-18T10:02:27Z</time>
      </trkpt>
      <trkpt lat="45.30867" lon="4.47723">
        <ele>1191.69</ele>
        <time>2018-10-18T10:02:44Z</time>
      </trkpt>
      <trkpt lat="45.30862" lon="4.47715">
        <ele>1192.17</ele>
        <time>2018-10-18T10:02:59Z</time>
      </trkpt>
      <trkpt lat="45.30862" lon="4.47712">
        <ele>1192.65</ele>
        <time>2018-10-18T10:03:14Z</time>
      </trkpt>
      <trkpt lat="45.30866" lon="4.47707">
        <ele>1193.61</ele>
        <time>2018-10-18T10:03:28Z</time>
      </trkpt>
      <trkpt lat="45.30868" lon="4.47704">
        <ele>1194.09</ele>
        <time>2018-10-18T10:03:50Z</time>
      </trkpt>
      <trkpt lat="45.30868" lon="4.47706">
        <ele>1194.09</ele>
        <time>2018-10-18T10:04:14Z</time>
      </trkpt>
      <trkpt lat="45.3086" lon="4.4771">
        <ele>1193.61</ele>
        <time>2018-10-18T10:04:39Z</time>
      </trkpt>
      <trkpt lat="45.30862" lon="4.47714">
        <ele>1193.61</ele>
        <time>2018-10-18T10:05:09Z</time>
      </trkpt>
      <trkpt lat="45.30866" lon="4.4771">
        <ele>1193.61</ele>
        <time>2018-10-18T10:05:38Z</time>
      </trkpt>
      <trkpt lat="45.30868" lon="4.47712">
        <ele>1193.13</ele>
        <time>2018-10-18T10:06:15Z</time>
      </trkpt>
      <trkpt lat="45.3087" lon="4.47709">
        <ele>1193.13</ele>
        <time>2018-10-18T10:06:43Z</time>
      </trkpt>
      <trkpt lat="45.30868" lon="4.47709">
        <ele>1193.13</ele>
        <time>2018-10-18T10:07:14Z</time>
      </trkpt>
      <trkpt lat="45.30864" lon="4.47707">
        <ele>1193.61</ele>
        <time>2018-10-18T10:07:45Z</time>
      </trkpt>
      <trkpt lat="45.30861" lon="4.47713">
        <ele>1193.61</ele>
        <time>2018-10-18T10:08:19Z</time>
      </trkpt>
      <trkpt lat="45.3086" lon="4.47711">
        <ele>1193.61</ele>
        <time>2018-10-18T10:08:58Z</time>
      </trkpt>
      <trkpt lat="45.30865" lon="4.47712">
        <ele>1193.61</ele>
        <time>2018-10-18T10:09:36Z</time>
      </trkpt>
      <trkpt lat="45.30864" lon="4.47709">
        <ele>1193.61</ele>
        <time>2018-10-18T10:10:11Z</time>
      </trkpt>
      <trkpt lat="45.30864" lon="4.47709">
        <ele>1194.09</ele>
        <time>2018-10-18T10:10:51Z</time>
      </trkpt>
      <trkpt lat="45.30864" lon="4.47709">
        <ele>1194.58</ele>
        <time>2018-10-18T10:11:24Z</time>
      </trkpt>
      <trkpt lat="45.30862" lon="4.47706">
        <ele>1194.09</ele>
        <time>2018-10-18T10:11:56Z</time>
      </trkpt>
      <trkpt lat="45.30864" lon="4.47706">
        <ele>1194.09</ele>
        <time>2018-10-18T10:12:38Z</time>
      </trkpt>
      <trkpt lat="45.30869" lon="4.47708">
        <ele>1194.58</ele>
        <time>2018-10-18T10:13:13Z</time>
      </trkpt>
      <trkpt lat="45.30865" lon="4.47708">
        <ele>1194.58</ele>
        <time>2018-10-18T10:13:47Z</time>
      </trkpt>
      <trkpt lat="45.30865" lon="4.47708">
        <ele>1194.58</ele>
        <time>2018-10-18T10:14:20Z</time>
      </trkpt>
      <trkpt lat="45.30868" lon="4.47707">
        <ele>1195.06</ele>
        <time>2018-10-18T10:14:51Z</time>
      </trkpt>
      <trkpt lat="45.30868" lon="4.47706">
        <ele>1194.58</ele>
        <time>2018-10-18T10:15:20Z</time>
      </trkpt>
      <trkpt lat="45.30868" lon="4.47708">
        <ele>1195.06</ele>
        <time>2018-10-18T10:15:53Z</time>
      </trkpt>
      <trkpt lat="45.30867" lon="4.47711">
        <ele>1195.54</ele>
        <time>2018-10-18T10:16:28Z</time>
      </trkpt>
      <trkpt lat="45.30868" lon="4.47707">
        <ele>1195.06</ele>
        <time>2018-10-18T10:17:06Z</time>
      </trkpt>
      <trkpt lat="45.30869" lon="4.47707">
        <ele>1196.02</ele>
        <time>2018-10-18T10:17:37Z</time>
      </trkpt>
      <trkpt lat="45.30863" lon="4.47707">
        <ele>1195.54</ele>
        <time>2018-10-18T10:18:18Z</time>
      </trkpt>
      <trkpt lat="45.30866" lon="4.47708">
        <ele>1195.54</ele>
        <time>2018-10-18T10:18:53Z</time>
      </trkpt>
      <trkpt lat="45.30868" lon="4.47707">
        <ele>1196.02</ele>
        <time>2018-10-18T10:19:32Z</time>
      </trkpt>
      <trkpt lat="45.30867" lon="4.47709">
        <ele>1195.54</ele>
        <time>2018-10-18T10:20:03Z</time>
      </trkpt>
      <trkpt lat="45.30866" lon="4.4771">
        <ele>1196.02</ele>
        <time>2018-10-18T10:20:39Z</time>
      </trkpt>
      <trkpt lat="45.30865" lon="4.47709">
        <ele>1195.54</ele>
        <time>2018-10-18T10:21:11Z</time>
      </trkpt>
      <trkpt lat="45.30867" lon="4.47705">
        <ele>1195.54</ele>
        <time>2018-10-18T10:21:42Z</time>
      </trkpt>
      <trkpt lat="45.30866" lon="4.47709">
        <ele>1195.54</ele>
        <time>2018-10-18T10:22:14Z</time>
      </trkpt>
      <trkpt lat="45.30868" lon="4.4771">
        <ele>1196.02</ele>
        <time>2018-10-18T10:22:50Z</time>
      </trkpt>
      <trkpt lat="45.30867" lon="4.47713">
        <ele>1196.02</ele>
        <time>2018-10-18T10:23:30Z</time>
      </trkpt>
      <trkpt lat="45.30865" lon="4.4771">
        <ele>1196.02</ele>
        <time>2018-10-18T10:24:11Z</time>
      </trkpt>
      <trkpt lat="45.30864" lon="4.47711">
        <ele>1195.54</ele>
        <time>2018-10-18T10:24:47Z</time>
      </trkpt>
      <trkpt lat="45.30865" lon="4.47711">
        <ele>1195.54</ele>
        <time>2018-10-18T10:25:24Z</time>
      </trkpt>
      <trkpt lat="45.30867" lon="4.4771">
        <ele>1195.06</ele>
        <time>2018-10-18T10:26:00Z</time>
      </trkpt>
      <trkpt lat="45.30867" lon="4.4771">
        <ele>1196.02</ele>
        <time>2018-10-18T10:26:30Z</time>
      </trkpt>
      <trkpt lat="45.30868" lon="4.47709">
        <ele>1195.54</ele>
        <time>2018-10-18T10:26:59Z</time>
      </trkpt>
      <trkpt lat="45.30868" lon="4.47709">
        <ele>1195.54</ele>
        <time>2018-10-18T10:27:30Z</time>
      </trkpt>
      <trkpt lat="45.30866" lon="4.47708">
        <ele>1195.54</ele>
        <time>2018-10-18T10:27:59Z</time>
      </trkpt>
      <trkpt lat="45.30867" lon="4.47702">
        <ele>1195.06</ele>
        <time>2018-10-18T10:28:32Z</time>
      </trkpt>
      <trkpt lat="45.30867" lon="4.47704">
        <ele>1195.54</ele>
        <time>2018-10-18T10:28:59Z</time>
      </trkpt>
      <trkpt lat="45.30866" lon="4.4771">
        <ele>1195.54</ele>
        <time>2018-10-18T10:29:32Z</time>
      </trkpt>
      <trkpt lat="45.30867" lon="4.47708">
        <ele>1195.54</ele>
        <time>2018-10-18T10:30:06Z</time>
      </trkpt>
      <trkpt lat="45.30867" lon="4.47707">
        <ele>1195.54</ele>
        <time>2018-10-18T10:30:34Z</time>
      </trkpt>
      <trkpt lat="45.30866" lon="4.47708">
        <ele>1195.54</ele>
        <time>2018-10-18T10:31:08Z</time>
      </trkpt>
      <trkpt lat="45.30866" lon="4.47706">
        <ele>1195.54</ele>
        <time>2018-10-18T10:31:46Z</time>
      </trkpt>
      <trkpt lat="45.3086" lon="4.47708">
        <ele>1195.54</ele>
        <time>2018-10-18T10:32:20Z</time>
      </trkpt>
      <trkpt lat="45.30861" lon="4.47712">
        <ele>1195.54</ele>
        <time>2018-10-18T10:33:02Z</time>
      </trkpt>
      <trkpt lat="45.30868" lon="4.47707">
        <ele>1195.54</ele>
        <time>2018-10-18T10:33:35Z</time>
      </trkpt>
      <trkpt lat="45.30867" lon="4.47708">
        <ele>1195.54</ele>
        <time>2018-10-18T10:33:53Z</time>
      </trkpt>
      <trkpt lat="45.30867" lon="4.47709">
        <ele>1195.54</ele>
        <time>2018-10-18T10:34:29Z</time>
      </trkpt>
      <trkpt lat="45.30868" lon="4.4771">
        <ele>1195.54</ele>
        <time>2018-10-18T10:35:03Z</time>
      </trkpt>
      <trkpt lat="45.30874" lon="4.47717">
        <ele>1196.02</ele>
        <time>2018-10-18T10:35:21Z</time>
      </trkpt>
      <trkpt lat="45.30882" lon="4.47714">
        <ele>1196.98</ele>
        <time>2018-10-18T10:35:40Z</time>
      </trkpt>
      <trkpt lat="45.30889" lon="4.47705">
        <ele>1196.98</ele>
        <time>2018-10-18T10:36:17Z</time>
      </trkpt>
      <trkpt lat="45.30871" lon="4.47708">
        <ele>1196.02</ele>
        <time>2018-10-18T10:36:37Z</time>
      </trkpt>
      <trkpt lat="45.30871" lon="4.47711">
        <ele>1196.02</ele>
        <time>2018-10-18T10:37:06Z</time>
      </trkpt>
      <trkpt lat="45.30867" lon="4.47708">
        <ele>1195.54</ele>
        <time>2018-10-18T10:37:37Z</time>
      </trkpt>
      <trkpt lat="45.30866" lon="4.47711">
        <ele>1195.54</ele>
        <time>2018-10-18T10:38:09Z</time>
      </trkpt>
      <trkpt lat="45.3087" lon="4.47705">
        <ele>1195.06</ele>
        <time>2018-10-18T10:38:45Z</time>
      </trkpt>
      <trkpt lat="45.30867" lon="4.47709">
        <ele>1195.54</ele>
        <time>2018-10-18T10:39:12Z</time>
      </trkpt>
      <trkpt lat="45.30861" lon="4.47711">
        <ele>1195.54</ele>
        <time>2018-10-18T10:39:48Z</time>
      </trkpt>
      <trkpt lat="45.30861" lon="4.47721">
        <ele>1195.54</ele>
        <time>2018-10-18T10:40:27Z</time>
      </trkpt>
      <trkpt lat="45.30866" lon="4.47705">
        <ele>1195.06</ele>
        <time>2018-10-18T10:40:58Z</time>
      </trkpt>
      <trkpt lat="45.30863" lon="4.47706">
        <ele>1195.54</ele>
        <time>2018-10-18T10:41:28Z</time>
      </trkpt>
      <trkpt lat="45.30863" lon="4.47706">
        <ele>1195.54</ele>
        <time>2018-10-18T10:42:06Z</time>
      </trkpt>
      <trkpt lat="45.30866" lon="4.47706">
        <ele>1195.54</ele>
        <time>2018-10-18T10:42:38Z</time>
      </trkpt>
      <trkpt lat="45.30865" lon="4.47709">
        <ele>1195.54</ele>
        <time>2018-10-18T10:43:12Z</time>
      </trkpt>
      <trkpt lat="45.30865" lon="4.4771">
        <ele>1195.06</ele>
        <time>2018-10-18T10:43:42Z</time>
      </trkpt>
      <trkpt lat="45.30862" lon="4.4771">
        <ele>1195.54</ele>
        <time>2018-10-18T10:44:18Z</time>
      </trkpt>
      <trkpt lat="45.30859" lon="4.47712">
        <ele>1195.06</ele>
        <time>2018-10-18T10:44:49Z</time>
      </trkpt>
      <trkpt lat="45.30862" lon="4.47707">
        <ele>1195.54</ele>
        <time>2018-10-18T10:45:22Z</time>
      </trkpt>
      <trkpt lat="45.30863" lon="4.47708">
        <ele>1195.06</ele>
        <time>2018-10-18T10:45:59Z</time>
      </trkpt>
      <trkpt lat="45.3086" lon="4.47711">
        <ele>1195.06</ele>
        <time>2018-10-18T10:46:29Z</time>
      </trkpt>
      <trkpt lat="45.30859" lon="4.47699">
        <ele>1195.06</ele>
        <time>2018-10-18T10:47:05Z</time>
      </trkpt>
      <trkpt lat="45.30858" lon="4.47699">
        <ele>1194.58</ele>
        <time>2018-10-18T10:47:31Z</time>
      </trkpt>
      <trkpt lat="45.30862" lon="4.47703">
        <ele>1195.06</ele>
        <time>2018-10-18T10:48:08Z</time>
      </trkpt>
      <trkpt lat="45.30861" lon="4.47707">
        <ele>1195.06</ele>
        <time>2018-10-18T10:48:50Z</time>
      </trkpt>
      <trkpt lat="45.30863" lon="4.47707">
        <ele>1195.06</ele>
        <time>2018-10-18T10:49:28Z</time>
      </trkpt>
      <trkpt lat="45.30863" lon="4.47707">
        <ele>1194.58</ele>
        <time>2018-10-18T10:50:00Z</time>
      </trkpt>
      <trkpt lat="45.30862" lon="4.47707">
        <ele>1194.58</ele>
        <time>2018-10-18T10:50:37Z</time>
      </trkpt>
      <trkpt lat="45.30862" lon="4.47708">
        <ele>1194.58</ele>
        <time>2018-10-18T10:51:12Z</time>
      </trkpt>
      <trkpt lat="45.30861" lon="4.47709">
        <ele>1195.06</ele>
        <time>2018-10-18T10:51:48Z</time>
      </trkpt>
      <trkpt lat="45.30859" lon="4.47714">
        <ele>1195.06</ele>
        <time>2018-10-18T10:52:24Z</time>
      </trkpt>
      <trkpt lat="45.30861" lon="4.47709">
        <ele>1195.06</ele>
        <time>2018-10-18T10:52:57Z</time>
      </trkpt>
      <trkpt lat="45.30861" lon="4.47708">
        <ele>1195.06</ele>
        <time>2018-10-18T10:53:31Z</time>
      </trkpt>
      <trkpt lat="45.30861" lon="4.47708">
        <ele>1195.06</ele>
        <time>2018-10-18T10:54:00Z</time>
      </trkpt>
      <trkpt lat="45.30861" lon="4.47706">
        <ele>1195.06</ele>
        <time>2018-10-18T10:54:31Z</time>
      </trkpt>
      <trkpt lat="45.30863" lon="4.47712">
        <ele>1195.06</ele>
        <time>2018-10-18T10:55:07Z</time>
      </trkpt>
      <trkpt lat="45.30863" lon="4.47711">
        <ele>1195.06</ele>
        <time>2018-10-18T10:55:46Z</time>
      </trkpt>
      <trkpt lat="45.30862" lon="4.47711">
        <ele>1195.06</ele>
        <time>2018-10-18T10:56:19Z</time>
      </trkpt>
      <trkpt lat="45.30864" lon="4.4771">
        <ele>1195.54</ele>
        <time>2018-10-18T10:56:55Z</time>
      </trkpt>
      <trkpt lat="45.30864" lon="4.47703">
        <ele>1195.06</ele>
        <time>2018-10-18T10:57:38Z</time>
      </trkpt>
      <trkpt lat="45.30862" lon="4.47708">
        <ele>1195.06</ele>
        <time>2018-10-18T10:58:16Z</time>
      </trkpt>
      <trkpt lat="45.30861" lon="4.47706">
        <ele>1194.58</ele>
        <time>2018-10-18T10:58:55Z</time>
      </trkpt>
      <trkpt lat="45.30862" lon="4.47705">
        <ele>1195.06</ele>
        <time>2018-10-18T10:59:39Z</time>
      </trkpt>
      <trkpt lat="45.30862" lon="4.47709">
        <ele>1195.54</ele>
        <time>2018-10-18T11:00:13Z</time>
      </trkpt>
      <trkpt lat="45.3086" lon="4.47707">
        <ele>1195.54</ele>
        <time>2018-10-18T11:00:56Z</time>
      </trkpt>
      <trkpt lat="45.30862" lon="4.4771">
        <ele>1196.02</ele>
        <time>2018-10-18T11:01:33Z</time>
      </trkpt>
      <trkpt lat="45.30863" lon="4.47706">
        <ele>1196.02</ele>
        <time>2018-10-18T11:02:12Z</time>
      </trkpt>
      <trkpt lat="45.30862" lon="4.47709">
        <ele>1196.02</ele>
        <time>2018-10-18T11:02:55Z</time>
      </trkpt>
      <trkpt lat="45.30865" lon="4.47707">
        <ele>1196.5</ele>
        <time>2018-10-18T11:03:34Z</time>
      </trkpt>
      <trkpt lat="45.30868" lon="4.47707">
        <ele>1196.02</ele>
        <time>2018-10-18T11:03:59Z</time>
      </trkpt>
      <trkpt lat="45.30865" lon="4.47704">
        <ele>1196.5</ele>
        <time>2018-10-18T11:04:25Z</time>
      </trkpt>
      <trkpt lat="45.30865" lon="4.47704">
        <ele>1196.5</ele>
        <time>2018-10-18T11:04:54Z</time>
      </trkpt>
      <trkpt lat="45.30863" lon="4.47705">
        <ele>1196.5</ele>
        <time>2018-10-18T11:05:21Z</time>
      </trkpt>
      <trkpt lat="45.30863" lon="4.47699">
        <ele>1196.5</ele>
        <time>2018-10-18T11:05:38Z</time>
      </trkpt>
      <trkpt lat="45.30859" lon="4.47699">
        <ele>1196.02</ele>
        <time>2018-10-18T11:06:04Z</time>
      </trkpt>
      <trkpt lat="45.30858" lon="4.47698">
        <ele>1195.54</ele>
        <time>2018-10-18T11:06:27Z</time>
      </trkpt>
      <trkpt lat="45.3086" lon="4.47702">
        <ele>1195.54</ele>
        <time>2018-10-18T11:06:50Z</time>
      </trkpt>
      <trkpt lat="45.3086" lon="4.47703">
        <ele>1196.02</ele>
        <time>2018-10-18T11:07:07Z</time>
      </trkpt>
      <trkpt lat="45.30861" lon="4.47708">
        <ele>1196.02</ele>
        <time>2018-10-18T11:07:37Z</time>
      </trkpt>
      <trkpt lat="45.30857" lon="4.47708">
        <ele>1195.06</ele>
        <time>2018-10-18T11:07:57Z</time>
      </trkpt>
      <trkpt lat="45.30855" lon="4.47716">
        <ele>1194.58</ele>
        <time>2018-10-18T11:08:14Z</time>
      </trkpt>
      <trkpt lat="45.30847" lon="4.47714">
        <ele>1192.17</ele>
        <time>2018-10-18T11:08:34Z</time>
      </trkpt>
      <trkpt lat="45.3084" lon="4.47705">
        <ele>1191.21</ele>
        <time>2018-10-18T11:08:51Z</time>
      </trkpt>
      <trkpt lat="45.30832" lon="4.47695">
        <ele>1189.77</ele>
        <time>2018-10-18T11:09:06Z</time>
      </trkpt>
      <trkpt lat="45.30823" lon="4.47686">
        <ele>1187.85</ele>
        <time>2018-10-18T11:09:24Z</time>
      </trkpt>
      <trkpt lat="45.3082" lon="4.47682">
        <ele>1188.33</ele>
        <time>2018-10-18T11:09:41Z</time>
      </trkpt>
      <trkpt lat="45.30816" lon="4.47676">
        <ele>1188.33</ele>
        <time>2018-10-18T11:10:01Z</time>
      </trkpt>
      <trkpt lat="45.30807" lon="4.47667">
        <ele>1188.81</ele>
        <time>2018-10-18T11:10:20Z</time>
      </trkpt>
      <trkpt lat="45.30793" lon="4.47666">
        <ele>1188.33</ele>
        <time>2018-10-18T11:10:38Z</time>
      </trkpt>
      <trkpt lat="45.30782" lon="4.47663">
        <ele>1187.37</ele>
        <time>2018-10-18T11:10:54Z</time>
      </trkpt>
      <trkpt lat="45.30766" lon="4.4766">
        <ele>1185.92</ele>
        <time>2018-10-18T11:11:11Z</time>
      </trkpt>
      <trkpt lat="45.3075" lon="4.47654">
        <ele>1183.52</ele>
        <time>2018-10-18T11:11:33Z</time>
      </trkpt>
      <trkpt lat="45.30739" lon="4.47648">
        <ele>1183.04</ele>
        <time>2018-10-18T11:11:49Z</time>
      </trkpt>
      <trkpt lat="45.30736" lon="4.47636">
        <ele>1182.56</ele>
        <time>2018-10-18T11:12:11Z</time>
      </trkpt>
      <trkpt lat="45.30727" lon="4.47613">
        <ele>1182.56</ele>
        <time>2018-10-18T11:12:34Z</time>
      </trkpt>
      <trkpt lat="45.30724" lon="4.47618">
        <ele>1182.08</ele>
        <time>2018-10-18T11:12:52Z</time>
      </trkpt>
      <trkpt lat="45.30708" lon="4.4763">
        <ele>1180.16</ele>
        <time>2018-10-18T11:13:13Z</time>
      </trkpt>
      <trkpt lat="45.3069" lon="4.47639">
        <ele>1179.19</ele>
        <time>2018-10-18T11:13:30Z</time>
      </trkpt>
      <trkpt lat="45.30675" lon="4.4767">
        <ele>1178.71</ele>
        <time>2018-10-18T11:13:52Z</time>
      </trkpt>
      <trkpt lat="45.30658" lon="4.4769">
        <ele>1178.23</ele>
        <time>2018-10-18T11:14:13Z</time>
      </trkpt>
      <trkpt lat="45.3065" lon="4.47696">
        <ele>1178.23</ele>
        <time>2018-10-18T11:14:31Z</time>
      </trkpt>
      <trkpt lat="45.30618" lon="4.47713">
        <ele>1177.75</ele>
        <time>2018-10-18T11:14:58Z</time>
      </trkpt>
      <trkpt lat="45.30593" lon="4.47732">
        <ele>1177.27</ele>
        <time>2018-10-18T11:15:23Z</time>
      </trkpt>
      <trkpt lat="45.3057" lon="4.47749">
        <ele>1176.31</ele>
        <time>2018-10-18T11:15:47Z</time>
      </trkpt>
      <trkpt lat="45.30563" lon="4.47752">
        <ele>1176.31</ele>
        <time>2018-10-18T11:16:04Z</time>
      </trkpt>
      <trkpt lat="45.30564" lon="4.47749">
        <ele>1176.31</ele>
        <time>2018-10-18T11:16:28Z</time>
      </trkpt>
      <trkpt lat="45.30557" lon="4.47729">
        <ele>1175.35</ele>
        <time>2018-10-18T11:16:46Z</time>
      </trkpt>
      <trkpt lat="45.30545" lon="4.47701">
        <ele>1174.87</ele>
        <time>2018-10-18T11:17:09Z</time>
      </trkpt>
      <trkpt lat="45.30537" lon="4.47684">
        <ele>1174.39</ele>
        <time>2018-10-18T11:17:23Z</time>
      </trkpt>
      <trkpt lat="45.30528" lon="4.47649">
        <ele>1173.43</ele>
        <time>2018-10-18T11:17:45Z</time>
      </trkpt>
      <trkpt lat="45.30526" lon="4.47638">
        <ele>1173.43</ele>
        <time>2018-10-18T11:18:04Z</time>
      </trkpt>
      <trkpt lat="45.30527" lon="4.47619">
        <ele>1171.98</ele>
        <time>2018-10-18T11:18:23Z</time>
      </trkpt>
      <trkpt lat="45.30527" lon="4.47615">
        <ele>1171.98</ele>
        <time>2018-10-18T11:18:26Z</time>
      </trkpt>
      <trkpt lat="45.30523" lon="4.47594">
        <ele>1171.5</ele>
        <time>2018-10-18T11:18:43Z</time>
      </trkpt>
      <trkpt lat="45.30518" lon="4.47578">
        <ele>1171.02</ele>
        <time>2018-10-18T11:18:57Z</time>
      </trkpt>
      <trkpt lat="45.30505" lon="4.47554">
        <ele>1169.1</ele>
        <time>2018-10-18T11:19:19Z</time>
      </trkpt>
      <trkpt lat="45.30503" lon="4.47549">
        <ele>1168.62</ele>
        <time>2018-10-18T11:19:34Z</time>
      </trkpt>
      <trkpt lat="45.3049" lon="4.47525">
        <ele>1166.7</ele>
        <time>2018-10-18T11:19:53Z</time>
      </trkpt>
      <trkpt lat="45.30493" lon="4.47519">
        <ele>1166.7</ele>
        <time>2018-10-18T11:20:11Z</time>
      </trkpt>
      <trkpt lat="45.30496" lon="4.47515">
        <ele>1166.7</ele>
        <time>2018-10-18T11:20:44Z</time>
      </trkpt>
      <trkpt lat="45.30495" lon="4.47514">
        <ele>1166.7</ele>
        <time>2018-10-18T11:21:11Z</time>
      </trkpt>
      <trkpt lat="45.30494" lon="4.4751">
        <ele>1166.22</ele>
        <time>2018-10-18T11:21:42Z</time>
      </trkpt>
      <trkpt lat="45.30497" lon="4.47494">
        <ele>1166.22</ele>
        <time>2018-10-18T11:21:59Z</time>
      </trkpt>
      <trkpt lat="45.30496" lon="4.47491">
        <ele>1165.74</ele>
        <time>2018-10-18T11:22:23Z</time>
      </trkpt>
      <trkpt lat="45.30502" lon="4.47467">
        <ele>1165.26</ele>
        <time>2018-10-18T11:22:43Z</time>
      </trkpt>
      <trkpt lat="45.30502" lon="4.47463">
        <ele>1165.26</ele>
        <time>2018-10-18T11:22:46Z</time>
      </trkpt>
      <trkpt lat="45.30507" lon="4.47438">
        <ele>1164.77</ele>
        <time>2018-10-18T11:23:07Z</time>
      </trkpt>
      <trkpt lat="45.30514" lon="4.4741">
        <ele>1163.33</ele>
        <time>2018-10-18T11:23:28Z</time>
      </trkpt>
      <trkpt lat="45.30515" lon="4.47401">
        <ele>1162.37</ele>
        <time>2018-10-18T11:23:46Z</time>
      </trkpt>
      <trkpt lat="45.30513" lon="4.47396">
        <ele>1161.89</ele>
        <time>2018-10-18T11:24:06Z</time>
      </trkpt>
      <trkpt lat="45.30511" lon="4.47396">
        <ele>1162.37</ele>
        <time>2018-10-18T11:24:31Z</time>
      </trkpt>
      <trkpt lat="45.30511" lon="4.47401">
        <ele>1161.89</ele>
        <time>2018-10-18T11:24:58Z</time>
      </trkpt>
      <trkpt lat="45.30503" lon="4.47389">
        <ele>1160.93</ele>
        <time>2018-10-18T11:25:21Z</time>
      </trkpt>
      <trkpt lat="45.30498" lon="4.47384">
        <ele>1160.45</ele>
        <time>2018-10-18T11:25:29Z</time>
      </trkpt>
      <trkpt lat="45.30493" lon="4.4736">
        <ele>1159.01</ele>
        <time>2018-10-18T11:25:50Z</time>
      </trkpt>
      <trkpt lat="45.30489" lon="4.47347">
        <ele>1158.05</ele>
        <time>2018-10-18T11:26:00Z</time>
      </trkpt>
      <trkpt lat="45.30483" lon="4.47325">
        <ele>1157.08</ele>
        <time>2018-10-18T11:26:16Z</time>
      </trkpt>
      <trkpt lat="45.3047" lon="4.47299">
        <ele>1154.68</ele>
        <time>2018-10-18T11:26:38Z</time>
      </trkpt>
      <trkpt lat="45.30459" lon="4.47277">
        <ele>1153.72</ele>
        <time>2018-10-18T11:26:58Z</time>
      </trkpt>
      <trkpt lat="45.30448" lon="4.47265">
        <ele>1153.24</ele>
        <time>2018-10-18T11:27:15Z</time>
      </trkpt>
      <trkpt lat="45.3044" lon="4.47257">
        <ele>1152.28</ele>
        <time>2018-10-18T11:27:29Z</time>
      </trkpt>
      <trkpt lat="45.30429" lon="4.47246">
        <ele>1150.84</ele>
        <time>2018-10-18T11:27:46Z</time>
      </trkpt>
      <trkpt lat="45.30419" lon="4.47235">
        <ele>1149.39</ele>
        <time>2018-10-18T11:28:02Z</time>
      </trkpt>
      <trkpt lat="45.30408" lon="4.47221">
        <ele>1147.95</ele>
        <time>2018-10-18T11:28:19Z</time>
      </trkpt>
      <trkpt lat="45.30405" lon="4.47203">
        <ele>1146.99</ele>
        <time>2018-10-18T11:28:37Z</time>
      </trkpt>
      <trkpt lat="45.30405" lon="4.47186">
        <ele>1145.55</ele>
        <time>2018-10-18T11:28:55Z</time>
      </trkpt>
      <trkpt lat="45.30404" lon="4.47169">
        <ele>1145.07</ele>
        <time>2018-10-18T11:29:12Z</time>
      </trkpt>
      <trkpt lat="45.30399" lon="4.47152">
        <ele>1144.11</ele>
        <time>2018-10-18T11:29:29Z</time>
      </trkpt>
      <trkpt lat="45.30394" lon="4.47139">
        <ele>1143.14</ele>
        <time>2018-10-18T11:29:42Z</time>
      </trkpt>
      <trkpt lat="45.30389" lon="4.47121">
        <ele>1142.18</ele>
        <time>2018-10-18T11:29:57Z</time>
      </trkpt>
      <trkpt lat="45.30383" lon="4.47103">
        <ele>1141.22</ele>
        <time>2018-10-18T11:30:14Z</time>
      </trkpt>
      <trkpt lat="45.30377" lon="4.47085">
        <ele>1140.74</ele>
        <time>2018-10-18T11:30:31Z</time>
      </trkpt>
      <trkpt lat="45.30372" lon="4.47069">
        <ele>1139.78</ele>
        <time>2018-10-18T11:30:48Z</time>
      </trkpt>
      <trkpt lat="45.30365" lon="4.47057">
        <ele>1138.82</ele>
        <time>2018-10-18T11:31:02Z</time>
      </trkpt>
      <trkpt lat="45.30359" lon="4.47045">
        <ele>1139.3</ele>
        <time>2018-10-18T11:31:15Z</time>
      </trkpt>
      <trkpt lat="45.30352" lon="4.47036">
        <ele>1137.38</ele>
        <time>2018-10-18T11:31:31Z</time>
      </trkpt>
      <trkpt lat="45.30346" lon="4.47023">
        <ele>1136.42</ele>
        <time>2018-10-18T11:31:50Z</time>
      </trkpt>
      <trkpt lat="45.30345" lon="4.47002">
        <ele>1134.49</ele>
        <time>2018-10-18T11:32:11Z</time>
      </trkpt>
      <trkpt lat="45.30342" lon="4.46982">
        <ele>1134.01</ele>
        <time>2018-10-18T11:32:30Z</time>
      </trkpt>
      <trkpt lat="45.30342" lon="4.46963">
        <ele>1133.05</ele>
        <time>2018-10-18T11:32:46Z</time>
      </trkpt>
      <trkpt lat="45.30339" lon="4.46939">
        <ele>1132.57</ele>
        <time>2018-10-18T11:33:06Z</time>
      </trkpt>
      <trkpt lat="45.30335" lon="4.46924">
        <ele>1133.05</ele>
        <time>2018-10-18T11:33:24Z</time>
      </trkpt>
      <trkpt lat="45.30325" lon="4.469">
        <ele>1133.53</ele>
        <time>2018-10-18T11:33:45Z</time>
      </trkpt>
      <trkpt lat="45.30318" lon="4.46878">
        <ele>1133.05</ele>
        <time>2018-10-18T11:34:03Z</time>
      </trkpt>
      <trkpt lat="45.3031" lon="4.46868">
        <ele>1132.57</ele>
        <time>2018-10-18T11:34:20Z</time>
      </trkpt>
      <trkpt lat="45.30304" lon="4.46868">
        <ele>1132.57</ele>
        <time>2018-10-18T11:34:40Z</time>
      </trkpt>
      <trkpt lat="45.30305" lon="4.46863">
        <ele>1133.05</ele>
        <time>2018-10-18T11:35:00Z</time>
      </trkpt>
      <trkpt lat="45.30304" lon="4.46863">
        <ele>1132.57</ele>
        <time>2018-10-18T11:35:19Z</time>
      </trkpt>
      <trkpt lat="45.30305" lon="4.46862">
        <ele>1133.05</ele>
        <time>2018-10-18T11:35:42Z</time>
      </trkpt>
      <trkpt lat="45.30301" lon="4.46856">
        <ele>1133.05</ele>
        <time>2018-10-18T11:36:00Z</time>
      </trkpt>
      <trkpt lat="45.30295" lon="4.46841">
        <ele>1132.57</ele>
        <time>2018-10-18T11:36:17Z</time>
      </trkpt>
      <trkpt lat="45.3029" lon="4.46827">
        <ele>1132.57</ele>
        <time>2018-10-18T11:36:34Z</time>
      </trkpt>
      <trkpt lat="45.30286" lon="4.4681">
        <ele>1132.09</ele>
        <time>2018-10-18T11:36:51Z</time>
      </trkpt>
      <trkpt lat="45.30284" lon="4.46795">
        <ele>1132.57</ele>
        <time>2018-10-18T11:37:07Z</time>
      </trkpt>
      <trkpt lat="45.30275" lon="4.46772">
        <ele>1130.65</ele>
        <time>2018-10-18T11:37:25Z</time>
      </trkpt>
      <trkpt lat="45.30267" lon="4.46751">
        <ele>1129.69</ele>
        <time>2018-10-18T11:37:44Z</time>
      </trkpt>
      <trkpt lat="45.30264" lon="4.46736">
        <ele>1129.69</ele>
        <time>2018-10-18T11:38:02Z</time>
      </trkpt>
      <trkpt lat="45.30267" lon="4.46725">
        <ele>1130.65</ele>
        <time>2018-10-18T11:38:25Z</time>
      </trkpt>
      <trkpt lat="45.30267" lon="4.46713">
        <ele>1131.61</ele>
        <time>2018-10-18T11:38:44Z</time>
      </trkpt>
      <trkpt lat="45.30261" lon="4.46696">
        <ele>1132.09</ele>
        <time>2018-10-18T11:39:05Z</time>
      </trkpt>
      <trkpt lat="45.30257" lon="4.46684">
        <ele>1130.65</ele>
        <time>2018-10-18T11:39:26Z</time>
      </trkpt>
      <trkpt lat="45.30253" lon="4.46664">
        <ele>1130.17</ele>
        <time>2018-10-18T11:39:48Z</time>
      </trkpt>
      <trkpt lat="45.3025" lon="4.46646">
        <ele>1129.21</ele>
        <time>2018-10-18T11:40:08Z</time>
      </trkpt>
      <trkpt lat="45.30248" lon="4.4664">
        <ele>1129.21</ele>
        <time>2018-10-18T11:40:26Z</time>
      </trkpt>
      <trkpt lat="45.30252" lon="4.46632">
        <ele>1130.65</ele>
        <time>2018-10-18T11:40:47Z</time>
      </trkpt>
      <trkpt lat="45.30253" lon="4.46623">
        <ele>1131.61</ele>
        <time>2018-10-18T11:41:09Z</time>
      </trkpt>
      <trkpt lat="45.30256" lon="4.46614">
        <ele>1131.61</ele>
        <time>2018-10-18T11:41:29Z</time>
      </trkpt>
      <trkpt lat="45.30262" lon="4.46609">
        <ele>1134.49</ele>
        <time>2018-10-18T11:41:50Z</time>
      </trkpt>
      <trkpt lat="45.30267" lon="4.46594">
        <ele>1136.42</ele>
        <time>2018-10-18T11:42:11Z</time>
      </trkpt>
      <trkpt lat="45.30267" lon="4.46582">
        <ele>1138.34</ele>
        <time>2018-10-18T11:42:30Z</time>
      </trkpt>
      <trkpt lat="45.30273" lon="4.46573">
        <ele>1139.3</ele>
        <time>2018-10-18T11:42:49Z</time>
      </trkpt>
      <trkpt lat="45.30274" lon="4.4656">
        <ele>1138.82</ele>
        <time>2018-10-18T11:43:07Z</time>
      </trkpt>
      <trkpt lat="45.30272" lon="4.46537">
        <ele>1138.34</ele>
        <time>2018-10-18T11:43:29Z</time>
      </trkpt>
      <trkpt lat="45.30265" lon="4.46515">
        <ele>1137.38</ele>
        <time>2018-10-18T11:43:50Z</time>
      </trkpt>
      <trkpt lat="45.30262" lon="4.46496">
        <ele>1137.38</ele>
        <time>2018-10-18T11:44:11Z</time>
      </trkpt>
      <trkpt lat="45.30257" lon="4.46478">
        <ele>1136.9</ele>
        <time>2018-10-18T11:44:28Z</time>
      </trkpt>
      <trkpt lat="45.30252" lon="4.46458">
        <ele>1136.42</ele>
        <time>2018-10-18T11:44:45Z</time>
      </trkpt>
      <trkpt lat="45.30249" lon="4.4644">
        <ele>1136.9</ele>
        <time>2018-10-18T11:45:02Z</time>
      </trkpt>
      <trkpt lat="45.30244" lon="4.46425">
        <ele>1135.94</ele>
        <time>2018-10-18T11:45:22Z</time>
      </trkpt>
      <trkpt lat="45.30239" lon="4.46396">
        <ele>1134.97</ele>
        <time>2018-10-18T11:45:43Z</time>
      </trkpt>
      <trkpt lat="45.30234" lon="4.46375">
        <ele>1134.01</ele>
        <time>2018-10-18T11:46:02Z</time>
      </trkpt>
      <trkpt lat="45.30229" lon="4.46356">
        <ele>1133.53</ele>
        <time>2018-10-18T11:46:18Z</time>
      </trkpt>
      <trkpt lat="45.30227" lon="4.46328">
        <ele>1133.05</ele>
        <time>2018-10-18T11:46:40Z</time>
      </trkpt>
      <trkpt lat="45.30228" lon="4.46303">
        <ele>1133.05</ele>
        <time>2018-10-18T11:46:58Z</time>
      </trkpt>
      <trkpt lat="45.30228" lon="4.46279">
        <ele>1132.09</ele>
        <time>2018-10-18T11:47:18Z</time>
      </trkpt>
      <trkpt lat="45.30232" lon="4.46268">
        <ele>1132.57</ele>
        <time>2018-10-18T11:47:35Z</time>
      </trkpt>
      <trkpt lat="45.30241" lon="4.46282">
        <ele>1133.53</ele>
        <time>2018-10-18T11:47:54Z</time>
      </trkpt>
      <trkpt lat="45.30252" lon="4.46293">
        <ele>1135.45</ele>
        <time>2018-10-18T11:48:17Z</time>
      </trkpt>
      <trkpt lat="45.30261" lon="4.46305">
        <ele>1136.9</ele>
        <time>2018-10-18T11:48:34Z</time>
      </trkpt>
      <trkpt lat="45.30271" lon="4.46321">
        <ele>1137.86</ele>
        <time>2018-10-18T11:48:52Z</time>
      </trkpt>
      <trkpt lat="45.30282" lon="4.46333">
        <ele>1138.82</ele>
        <time>2018-10-18T11:49:10Z</time>
      </trkpt>
      <trkpt lat="45.30297" lon="4.46348">
        <ele>1139.3</ele>
        <time>2018-10-18T11:49:26Z</time>
      </trkpt>
      <trkpt lat="45.30307" lon="4.46364">
        <ele>1139.78</ele>
        <time>2018-10-18T11:49:43Z</time>
      </trkpt>
      <trkpt lat="45.30316" lon="4.46382">
        <ele>1140.74</ele>
        <time>2018-10-18T11:50:02Z</time>
      </trkpt>
      <trkpt lat="45.30326" lon="4.46391">
        <ele>1141.22</ele>
        <time>2018-10-18T11:50:19Z</time>
      </trkpt>
      <trkpt lat="45.30329" lon="4.46395">
        <ele>1141.7</ele>
        <time>2018-10-18T11:50:42Z</time>
      </trkpt>
      <trkpt lat="45.30341" lon="4.46413">
        <ele>1142.66</ele>
        <time>2018-10-18T11:51:00Z</time>
      </trkpt>
      <trkpt lat="45.30349" lon="4.46428">
        <ele>1143.14</ele>
        <time>2018-10-18T11:51:17Z</time>
      </trkpt>
      <trkpt lat="45.30355" lon="4.46448">
        <ele>1144.59</ele>
        <time>2018-10-18T11:51:36Z</time>
      </trkpt>
      <trkpt lat="45.3036" lon="4.46458">
        <ele>1145.07</ele>
        <time>2018-10-18T11:51:52Z</time>
      </trkpt>
      <trkpt lat="45.30366" lon="4.46473">
        <ele>1146.03</ele>
        <time>2018-10-18T11:52:09Z</time>
      </trkpt>
      <trkpt lat="45.30373" lon="4.4649">
        <ele>1146.51</ele>
        <time>2018-10-18T11:52:31Z</time>
      </trkpt>
      <trkpt lat="45.30382" lon="4.4651">
        <ele>1147.95</ele>
        <time>2018-10-18T11:52:51Z</time>
      </trkpt>
      <trkpt lat="45.30383" lon="4.46519">
        <ele>1149.39</ele>
        <time>2018-10-18T11:53:07Z</time>
      </trkpt>
      <trkpt lat="45.30387" lon="4.46537">
        <ele>1150.35</ele>
        <time>2018-10-18T11:53:27Z</time>
      </trkpt>
      <trkpt lat="45.3039" lon="4.46553">
        <ele>1150.84</ele>
        <time>2018-10-18T11:53:43Z</time>
      </trkpt>
      <trkpt lat="45.30391" lon="4.4657">
        <ele>1152.76</ele>
        <time>2018-10-18T11:54:03Z</time>
      </trkpt>
      <trkpt lat="45.30393" lon="4.46574">
        <ele>1153.72</ele>
        <time>2018-10-18T11:54:20Z</time>
      </trkpt>
      <trkpt lat="45.30397" lon="4.46571">
        <ele>1154.2</ele>
        <time>2018-10-18T11:54:44Z</time>
      </trkpt>
      <trkpt lat="45.30394" lon="4.46581">
        <ele>1154.2</ele>
        <time>2018-10-18T11:55:07Z</time>
      </trkpt>
      <trkpt lat="45.30393" lon="4.46572">
        <ele>1154.2</ele>
        <time>2018-10-18T11:55:33Z</time>
      </trkpt>
      <trkpt lat="45.30393" lon="4.46574">
        <ele>1153.72</ele>
        <time>2018-10-18T11:55:52Z</time>
      </trkpt>
      <trkpt lat="45.30397" lon="4.46571">
        <ele>1154.68</ele>
        <time>2018-10-18T11:56:13Z</time>
      </trkpt>
      <trkpt lat="45.30402" lon="4.46568">
        <ele>1154.68</ele>
        <time>2018-10-18T11:56:38Z</time>
      </trkpt>
      <trkpt lat="45.30398" lon="4.46571">
        <ele>1155.16</ele>
        <time>2018-10-18T11:57:08Z</time>
      </trkpt>
      <trkpt lat="45.30397" lon="4.4657">
        <ele>1155.64</ele>
        <time>2018-10-18T11:57:33Z</time>
      </trkpt>
      <trkpt lat="45.30398" lon="4.46567">
        <ele>1155.64</ele>
        <time>2018-10-18T11:57:57Z</time>
      </trkpt>
      <trkpt lat="45.30398" lon="4.46566">
        <ele>1156.12</ele>
        <time>2018-10-18T11:58:23Z</time>
      </trkpt>
      <trkpt lat="45.30396" lon="4.46562">
        <ele>1156.6</ele>
        <time>2018-10-18T11:58:51Z</time>
      </trkpt>
      <trkpt lat="45.30395" lon="4.46557">
        <ele>1157.08</ele>
        <time>2018-10-18T11:59:14Z</time>
      </trkpt>
      <trkpt lat="45.30391" lon="4.46541">
        <ele>1155.64</ele>
        <time>2018-10-18T11:59:34Z</time>
      </trkpt>
      <trkpt lat="45.3039" lon="4.46518">
        <ele>1154.2</ele>
        <time>2018-10-18T11:59:57Z</time>
      </trkpt>
      <trkpt lat="45.30389" lon="4.46502">
        <ele>1153.24</ele>
        <time>2018-10-18T12:00:20Z</time>
      </trkpt>
      <trkpt lat="45.30376" lon="4.46476">
        <ele>1151.8</ele>
        <time>2018-10-18T12:00:43Z</time>
      </trkpt>
      <trkpt lat="45.30365" lon="4.46462">
        <ele>1150.35</ele>
        <time>2018-10-18T12:01:03Z</time>
      </trkpt>
      <trkpt lat="45.30357" lon="4.46441">
        <ele>1148.91</ele>
        <time>2018-10-18T12:01:24Z</time>
      </trkpt>
      <trkpt lat="45.30349" lon="4.46414">
        <ele>1148.43</ele>
        <time>2018-10-18T12:01:43Z</time>
      </trkpt>
      <trkpt lat="45.30336" lon="4.46394">
        <ele>1147.95</ele>
        <time>2018-10-18T12:02:04Z</time>
      </trkpt>
      <trkpt lat="45.30322" lon="4.46382">
        <ele>1146.51</ele>
        <time>2018-10-18T12:02:28Z</time>
      </trkpt>
      <trkpt lat="45.30314" lon="4.46367">
        <ele>1145.55</ele>
        <time>2018-10-18T12:02:48Z</time>
      </trkpt>
      <trkpt lat="45.303" lon="4.46346">
        <ele>1144.59</ele>
        <time>2018-10-18T12:03:13Z</time>
      </trkpt>
      <trkpt lat="45.30283" lon="4.46324">
        <ele>1142.66</ele>
        <time>2018-10-18T12:03:33Z</time>
      </trkpt>
      <trkpt lat="45.30268" lon="4.46304">
        <ele>1140.74</ele>
        <time>2018-10-18T12:03:52Z</time>
      </trkpt>
      <trkpt lat="45.30252" lon="4.46283">
        <ele>1138.82</ele>
        <time>2018-10-18T12:04:13Z</time>
      </trkpt>
      <trkpt lat="45.30232" lon="4.46263">
        <ele>1136.9</ele>
        <time>2018-10-18T12:04:34Z</time>
      </trkpt>
      <trkpt lat="45.30225" lon="4.46244">
        <ele>1134.97</ele>
        <time>2018-10-18T12:04:54Z</time>
      </trkpt>
      <trkpt lat="45.30228" lon="4.46229">
        <ele>1134.01</ele>
        <time>2018-10-18T12:05:15Z</time>
      </trkpt>
      <trkpt lat="45.30231" lon="4.46211">
        <ele>1133.53</ele>
        <time>2018-10-18T12:05:35Z</time>
      </trkpt>
      <trkpt lat="45.30227" lon="4.46203">
        <ele>1133.53</ele>
        <time>2018-10-18T12:05:54Z</time>
      </trkpt>
      <trkpt lat="45.30226" lon="4.46204">
        <ele>1133.53</ele>
        <time>2018-10-18T12:06:15Z</time>
      </trkpt>
      <trkpt lat="45.30219" lon="4.46203">
        <ele>1133.53</ele>
        <time>2018-10-18T12:06:50Z</time>
      </trkpt>
      <trkpt lat="45.30219" lon="4.46208">
        <ele>1133.53</ele>
        <time>2018-10-18T12:07:25Z</time>
      </trkpt>
      <trkpt lat="45.30217" lon="4.46211">
        <ele>1133.53</ele>
        <time>2018-10-18T12:08:06Z</time>
      </trkpt>
      <trkpt lat="45.30213" lon="4.46208">
        <ele>1134.01</ele>
        <time>2018-10-18T12:08:32Z</time>
      </trkpt>
      <trkpt lat="45.3021" lon="4.46212">
        <ele>1134.49</ele>
        <time>2018-10-18T12:09:02Z</time>
      </trkpt>
      <trkpt lat="45.30214" lon="4.46217">
        <ele>1134.97</ele>
        <time>2018-10-18T12:09:38Z</time>
      </trkpt>
      <trkpt lat="45.30214" lon="4.46212">
        <ele>1135.45</ele>
        <time>2018-10-18T12:10:15Z</time>
      </trkpt>
      <trkpt lat="45.30218" lon="4.46212">
        <ele>1135.45</ele>
        <time>2018-10-18T12:10:59Z</time>
      </trkpt>
      <trkpt lat="45.30216" lon="4.46213">
        <ele>1135.45</ele>
        <time>2018-10-18T12:11:25Z</time>
      </trkpt>
      <trkpt lat="45.30219" lon="4.46214">
        <ele>1135.94</ele>
        <time>2018-10-18T12:12:03Z</time>
      </trkpt>
      <trkpt lat="45.30225" lon="4.4621">
        <ele>1135.94</ele>
        <time>2018-10-18T12:12:35Z</time>
      </trkpt>
      <trkpt lat="45.30223" lon="4.46213">
        <ele>1136.42</ele>
        <time>2018-10-18T12:13:22Z</time>
      </trkpt>
      <trkpt lat="45.30219" lon="4.46213">
        <ele>1136.42</ele>
        <time>2018-10-18T12:13:57Z</time>
      </trkpt>
      <trkpt lat="45.30217" lon="4.46203">
        <ele>1136.42</ele>
        <time>2018-10-18T12:14:26Z</time>
      </trkpt>
      <trkpt lat="45.30225" lon="4.46209">
        <ele>1136.42</ele>
        <time>2018-10-18T12:15:00Z</time>
      </trkpt>
      <trkpt lat="45.30212" lon="4.4621">
        <ele>1136.42</ele>
        <time>2018-10-18T12:15:21Z</time>
      </trkpt>
      <trkpt lat="45.30202" lon="4.46207">
        <ele>1137.38</ele>
        <time>2018-10-18T12:15:39Z</time>
      </trkpt>
      <trkpt lat="45.30195" lon="4.46197">
        <ele>1136.9</ele>
        <time>2018-10-18T12:15:57Z</time>
      </trkpt>
      <trkpt lat="45.30181" lon="4.46194">
        <ele>1137.38</ele>
        <time>2018-10-18T12:16:15Z</time>
      </trkpt>
      <trkpt lat="45.30172" lon="4.46188">
        <ele>1137.38</ele>
        <time>2018-10-18T12:16:28Z</time>
      </trkpt>
      <trkpt lat="45.30162" lon="4.46194">
        <ele>1138.34</ele>
        <time>2018-10-18T12:16:45Z</time>
      </trkpt>
      <trkpt lat="45.30153" lon="4.46199">
        <ele>1139.3</ele>
        <time>2018-10-18T12:16:59Z</time>
      </trkpt>
      <trkpt lat="45.30153" lon="4.46202">
        <ele>1139.3</ele>
        <time>2018-10-18T12:17:14Z</time>
      </trkpt>
      <trkpt lat="45.3015" lon="4.4621">
        <ele>1140.26</ele>
        <time>2018-10-18T12:17:29Z</time>
      </trkpt>
      <trkpt lat="45.30147" lon="4.46214">
        <ele>1141.22</ele>
        <time>2018-10-18T12:17:46Z</time>
      </trkpt>
      <trkpt lat="45.30141" lon="4.46203">
        <ele>1142.18</ele>
        <time>2018-10-18T12:18:06Z</time>
      </trkpt>
      <trkpt lat="45.30138" lon="4.46217">
        <ele>1143.63</ele>
        <time>2018-10-18T12:18:19Z</time>
      </trkpt>
      <trkpt lat="45.30145" lon="4.46222">
        <ele>1145.55</ele>
        <time>2018-10-18T12:18:33Z</time>
      </trkpt>
      <trkpt lat="45.30149" lon="4.46221">
        <ele>1145.07</ele>
        <time>2018-10-18T12:19:08Z</time>
      </trkpt>
      <trkpt lat="45.30146" lon="4.46218">
        <ele>1145.07</ele>
        <time>2018-10-18T12:19:28Z</time>
      </trkpt>
      <trkpt lat="45.30144" lon="4.46216">
        <ele>1145.07</ele>
        <time>2018-10-18T12:19:50Z</time>
      </trkpt>
      <trkpt lat="45.30142" lon="4.46224">
        <ele>1145.55</ele>
        <time>2018-10-18T12:20:11Z</time>
      </trkpt>
      <trkpt lat="45.30148" lon="4.46223">
        <ele>1147.47</ele>
        <time>2018-10-18T12:20:34Z</time>
      </trkpt>
      <trkpt lat="45.30145" lon="4.46219">
        <ele>1146.99</ele>
        <time>2018-10-18T12:21:06Z</time>
      </trkpt>
      <trkpt lat="45.30144" lon="4.4623">
        <ele>1146.03</ele>
        <time>2018-10-18T12:21:36Z</time>
      </trkpt>
      <trkpt lat="45.30146" lon="4.46229">
        <ele>1145.55</ele>
        <time>2018-10-18T12:22:00Z</time>
      </trkpt>
      <trkpt lat="45.3014" lon="4.46219">
        <ele>1145.07</ele>
        <time>2018-10-18T12:22:24Z</time>
      </trkpt>
      <trkpt lat="45.30141" lon="4.46216">
        <ele>1144.59</ele>
        <time>2018-10-18T12:22:45Z</time>
      </trkpt>
      <trkpt lat="45.30141" lon="4.46215">
        <ele>1143.14</ele>
        <time>2018-10-18T12:23:07Z</time>
      </trkpt>
      <trkpt lat="45.30148" lon="4.46205">
        <ele>1140.74</ele>
        <time>2018-10-18T12:23:28Z</time>
      </trkpt>
      <trkpt lat="45.30156" lon="4.46199">
        <ele>1138.82</ele>
        <time>2018-10-18T12:23:49Z</time>
      </trkpt>
      <trkpt lat="45.30165" lon="4.46185">
        <ele>1137.38</ele>
        <time>2018-10-18T12:24:08Z</time>
      </trkpt>
      <trkpt lat="45.30165" lon="4.4619">
        <ele>1137.38</ele>
        <time>2018-10-18T12:24:30Z</time>
      </trkpt>
      <trkpt lat="45.30165" lon="4.46201">
        <ele>1136.9</ele>
        <time>2018-10-18T12:24:49Z</time>
      </trkpt>
      <trkpt lat="45.30172" lon="4.46196">
        <ele>1136.9</ele>
        <time>2018-10-18T12:25:15Z</time>
      </trkpt>
      <trkpt lat="45.30184" lon="4.46187">
        <ele>1136.42</ele>
        <time>2018-10-18T12:25:37Z</time>
      </trkpt>
      <trkpt lat="45.30201" lon="4.46187">
        <ele>1136.42</ele>
        <time>2018-10-18T12:25:55Z</time>
      </trkpt>
      <trkpt lat="45.30211" lon="4.46194">
        <ele>1135.94</ele>
        <time>2018-10-18T12:26:09Z</time>
      </trkpt>
      <trkpt lat="45.30221" lon="4.46197">
        <ele>1135.45</ele>
        <time>2018-10-18T12:26:24Z</time>
      </trkpt>
      <trkpt lat="45.30229" lon="4.46201">
        <ele>1135.45</ele>
        <time>2018-10-18T12:26:41Z</time>
      </trkpt>
      <trkpt lat="45.30236" lon="4.46191">
        <ele>1134.97</ele>
        <time>2018-10-18T12:26:58Z</time>
      </trkpt>
      <trkpt lat="45.30239" lon="4.46171">
        <ele>1134.01</ele>
        <time>2018-10-18T12:27:12Z</time>
      </trkpt>
      <trkpt lat="45.30242" lon="4.46145">
        <ele>1133.05</ele>
        <time>2018-10-18T12:27:32Z</time>
      </trkpt>
      <trkpt lat="45.30239" lon="4.46128">
        <ele>1131.61</ele>
        <time>2018-10-18T12:27:49Z</time>
      </trkpt>
      <trkpt lat="45.30235" lon="4.46099">
        <ele>1129.69</ele>
        <time>2018-10-18T12:28:12Z</time>
      </trkpt>
      <trkpt lat="45.30244" lon="4.46076">
        <ele>1128.24</ele>
        <time>2018-10-18T12:28:31Z</time>
      </trkpt>
      <trkpt lat="45.3025" lon="4.46063">
        <ele>1127.76</ele>
        <time>2018-10-18T12:28:47Z</time>
      </trkpt>
      <trkpt lat="45.30262" lon="4.46048">
        <ele>1126.8</ele>
        <time>2018-10-18T12:29:06Z</time>
      </trkpt>
      <trkpt lat="45.30271" lon="4.46037">
        <ele>1126.8</ele>
        <time>2018-10-18T12:29:19Z</time>
      </trkpt>
      <trkpt lat="45.30289" lon="4.46021">
        <ele>1126.32</ele>
        <time>2018-10-18T12:29:39Z</time>
      </trkpt>
      <trkpt lat="45.30302" lon="4.46007">
        <ele>1125.84</ele>
        <time>2018-10-18T12:29:59Z</time>
      </trkpt>
      <trkpt lat="45.3032" lon="4.46009">
        <ele>1126.32</ele>
        <time>2018-10-18T12:30:18Z</time>
      </trkpt>
      <trkpt lat="45.30325" lon="4.46008">
        <ele>1125.84</ele>
        <time>2018-10-18T12:30:40Z</time>
      </trkpt>
      <trkpt lat="45.30331" lon="4.46013">
        <ele>1126.32</ele>
        <time>2018-10-18T12:30:52Z</time>
      </trkpt>
      <trkpt lat="45.30348" lon="4.46014">
        <ele>1126.8</ele>
        <time>2018-10-18T12:31:08Z</time>
      </trkpt>
      <trkpt lat="45.30372" lon="4.46018">
        <ele>1125.36</ele>
        <time>2018-10-18T12:31:29Z</time>
      </trkpt>
      <trkpt lat="45.30376" lon="4.46002">
        <ele>1122.96</ele>
        <time>2018-10-18T12:31:45Z</time>
      </trkpt>
      <trkpt lat="45.30362" lon="4.45986">
        <ele>1122.48</ele>
        <time>2018-10-18T12:32:02Z</time>
      </trkpt>
      <trkpt lat="45.30347" lon="4.45967">
        <ele>1122</ele>
        <time>2018-10-18T12:32:20Z</time>
      </trkpt>
      <trkpt lat="45.30331" lon="4.45951">
        <ele>1121.52</ele>
        <time>2018-10-18T12:32:38Z</time>
      </trkpt>
      <trkpt lat="45.30317" lon="4.45934">
        <ele>1120.55</ele>
        <time>2018-10-18T12:32:56Z</time>
      </trkpt>
      <trkpt lat="45.30304" lon="4.45916">
        <ele>1119.59</ele>
        <time>2018-10-18T12:33:14Z</time>
      </trkpt>
      <trkpt lat="45.30293" lon="4.45902">
        <ele>1118.63</ele>
        <time>2018-10-18T12:33:31Z</time>
      </trkpt>
      <trkpt lat="45.30276" lon="4.4589">
        <ele>1117.19</ele>
        <time>2018-10-18T12:33:50Z</time>
      </trkpt>
      <trkpt lat="45.30266" lon="4.45874">
        <ele>1114.31</ele>
        <time>2018-10-18T12:34:11Z</time>
      </trkpt>
      <trkpt lat="45.30252" lon="4.4586">
        <ele>1113.34</ele>
        <time>2018-10-18T12:34:28Z</time>
      </trkpt>
      <trkpt lat="45.30244" lon="4.45848">
        <ele>1112.38</ele>
        <time>2018-10-18T12:34:40Z</time>
      </trkpt>
      <trkpt lat="45.30231" lon="4.45837">
        <ele>1110.46</ele>
        <time>2018-10-18T12:34:59Z</time>
      </trkpt>
      <trkpt lat="45.30224" lon="4.45829">
        <ele>1109.5</ele>
        <time>2018-10-18T12:35:20Z</time>
      </trkpt>
      <trkpt lat="45.30215" lon="4.45802">
        <ele>1107.58</ele>
        <time>2018-10-18T12:35:42Z</time>
      </trkpt>
      <trkpt lat="45.30213" lon="4.45777">
        <ele>1105.17</ele>
        <time>2018-10-18T12:36:04Z</time>
      </trkpt>
      <trkpt lat="45.30206" lon="4.45761">
        <ele>1104.21</ele>
        <time>2018-10-18T12:36:22Z</time>
      </trkpt>
      <trkpt lat="45.30207" lon="4.45756">
        <ele>1102.29</ele>
        <time>2018-10-18T12:36:37Z</time>
      </trkpt>
      <trkpt lat="45.30217" lon="4.45765">
        <ele>1101.33</ele>
        <time>2018-10-18T12:36:57Z</time>
      </trkpt>
      <trkpt lat="45.30231" lon="4.45777">
        <ele>1099.4</ele>
        <time>2018-10-18T12:37:20Z</time>
      </trkpt>
      <trkpt lat="45.30242" lon="4.45773">
        <ele>1098.44</ele>
        <time>2018-10-18T12:37:39Z</time>
      </trkpt>
      <trkpt lat="45.30247" lon="4.45755">
        <ele>1097.96</ele>
        <time>2018-10-18T12:37:57Z</time>
      </trkpt>
      <trkpt lat="45.30249" lon="4.45746">
        <ele>1097.48</ele>
        <time>2018-10-18T12:38:14Z</time>
      </trkpt>
      <trkpt lat="45.30252" lon="4.45742">
        <ele>1097.96</ele>
        <time>2018-10-18T12:38:35Z</time>
      </trkpt>
      <trkpt lat="45.30253" lon="4.45739">
        <ele>1097.96</ele>
        <time>2018-10-18T12:38:56Z</time>
      </trkpt>
      <trkpt lat="45.30253" lon="4.45737">
        <ele>1097.96</ele>
        <time>2018-10-18T12:39:05Z</time>
      </trkpt>
      <trkpt lat="45.30251" lon="4.45722">
        <ele>1097.48</ele>
        <time>2018-10-18T12:39:20Z</time>
      </trkpt>
      <trkpt lat="45.30246" lon="4.45714">
        <ele>1097.48</ele>
        <time>2018-10-18T12:39:28Z</time>
      </trkpt>
      <trkpt lat="45.30239" lon="4.45692">
        <ele>1097</ele>
        <time>2018-10-18T12:39:45Z</time>
      </trkpt>
      <trkpt lat="45.30237" lon="4.45669">
        <ele>1097</ele>
        <time>2018-10-18T12:40:04Z</time>
      </trkpt>
      <trkpt lat="45.3024" lon="4.45652">
        <ele>1098.44</ele>
        <time>2018-10-18T12:40:19Z</time>
      </trkpt>
      <trkpt lat="45.30238" lon="4.45646">
        <ele>1098.92</ele>
        <time>2018-10-18T12:40:24Z</time>
      </trkpt>
      <trkpt lat="45.30232" lon="4.45625">
        <ele>1100.85</ele>
        <time>2018-10-18T12:40:42Z</time>
      </trkpt>
      <trkpt lat="45.30229" lon="4.45606">
        <ele>1101.81</ele>
        <time>2018-10-18T12:40:57Z</time>
      </trkpt>
      <trkpt lat="45.30228" lon="4.45607">
        <ele>1101.81</ele>
        <time>2018-10-18T12:41:12Z</time>
      </trkpt>
      <trkpt lat="45.30231" lon="4.45599">
        <ele>1102.29</ele>
        <time>2018-10-18T12:41:31Z</time>
      </trkpt>
      <trkpt lat="45.30232" lon="4.45591">
        <ele>1103.25</ele>
        <time>2018-10-18T12:41:47Z</time>
      </trkpt>
      <trkpt lat="45.3023" lon="4.45587">
        <ele>1102.29</ele>
        <time>2018-10-18T12:41:59Z</time>
      </trkpt>
      <trkpt lat="45.30222" lon="4.45576">
        <ele>1102.77</ele>
        <time>2018-10-18T12:42:14Z</time>
      </trkpt>
      <trkpt lat="45.30214" lon="4.45565">
        <ele>1101.81</ele>
        <time>2018-10-18T12:42:32Z</time>
      </trkpt>
      <trkpt lat="45.30208" lon="4.45562">
        <ele>1101.81</ele>
        <time>2018-10-18T12:42:38Z</time>
      </trkpt>
      <trkpt lat="45.30194" lon="4.45542">
        <ele>1102.29</ele>
        <time>2018-10-18T12:42:57Z</time>
      </trkpt>
      <trkpt lat="45.30183" lon="4.45519">
        <ele>1101.33</ele>
        <time>2018-10-18T12:43:16Z</time>
      </trkpt>
      <trkpt lat="45.30183" lon="4.45517">
        <ele>1101.33</ele>
        <time>2018-10-18T12:43:18Z</time>
      </trkpt>
      <trkpt lat="45.3018" lon="4.455">
        <ele>1102.29</ele>
        <time>2018-10-18T12:43:34Z</time>
      </trkpt>
      <trkpt lat="45.30179" lon="4.45484">
        <ele>1104.21</ele>
        <time>2018-10-18T12:43:50Z</time>
      </trkpt>
      <trkpt lat="45.30178" lon="4.45481">
        <ele>1103.73</ele>
        <time>2018-10-18T12:44:05Z</time>
      </trkpt>
      <trkpt lat="45.30176" lon="4.45471">
        <ele>1104.21</ele>
        <time>2018-10-18T12:44:19Z</time>
      </trkpt>
      <trkpt lat="45.30175" lon="4.45456">
        <ele>1105.17</ele>
        <time>2018-10-18T12:44:35Z</time>
      </trkpt>
      <trkpt lat="45.30172" lon="4.45436">
        <ele>1106.61</ele>
        <time>2018-10-18T12:44:56Z</time>
      </trkpt>
      <trkpt lat="45.30172" lon="4.45421">
        <ele>1108.54</ele>
        <time>2018-10-18T12:45:17Z</time>
      </trkpt>
      <trkpt lat="45.30171" lon="4.45402">
        <ele>1109.98</ele>
        <time>2018-10-18T12:45:36Z</time>
      </trkpt>
      <trkpt lat="45.30168" lon="4.45384">
        <ele>1111.9</ele>
        <time>2018-10-18T12:45:55Z</time>
      </trkpt>
      <trkpt lat="45.30154" lon="4.4537">
        <ele>1114.31</ele>
        <time>2018-10-18T12:46:17Z</time>
      </trkpt>
      <trkpt lat="45.30144" lon="4.45365">
        <ele>1114.79</ele>
        <time>2018-10-18T12:46:36Z</time>
      </trkpt>
      <trkpt lat="45.30143" lon="4.45348">
        <ele>1117.19</ele>
        <time>2018-10-18T12:46:56Z</time>
      </trkpt>
      <trkpt lat="45.30148" lon="4.45326">
        <ele>1118.63</ele>
        <time>2018-10-18T12:47:19Z</time>
      </trkpt>
      <trkpt lat="45.30149" lon="4.45321">
        <ele>1119.11</ele>
        <time>2018-10-18T12:47:38Z</time>
      </trkpt>
      <trkpt lat="45.30154" lon="4.45306">
        <ele>1120.07</ele>
        <time>2018-10-18T12:47:57Z</time>
      </trkpt>
      <trkpt lat="45.30158" lon="4.45291">
        <ele>1122.48</ele>
        <time>2018-10-18T12:48:19Z</time>
      </trkpt>
      <trkpt lat="45.30159" lon="4.45288">
        <ele>1121.52</ele>
        <time>2018-10-18T12:48:43Z</time>
      </trkpt>
      <trkpt lat="45.3016" lon="4.45286">
        <ele>1122</ele>
        <time>2018-10-18T12:49:11Z</time>
      </trkpt>
      <trkpt lat="45.30149" lon="4.45282">
        <ele>1122</ele>
        <time>2018-10-18T12:49:38Z</time>
      </trkpt>
      <trkpt lat="45.3014" lon="4.45292">
        <ele>1123.44</ele>
        <time>2018-10-18T12:49:54Z</time>
      </trkpt>
      <trkpt lat="45.30131" lon="4.45297">
        <ele>1124.4</ele>
        <time>2018-10-18T12:50:12Z</time>
      </trkpt>
      <trkpt lat="45.30121" lon="4.45296">
        <ele>1125.36</ele>
        <time>2018-10-18T12:50:27Z</time>
      </trkpt>
      <trkpt lat="45.30113" lon="4.45292">
        <ele>1126.8</ele>
        <time>2018-10-18T12:50:42Z</time>
      </trkpt>
      <trkpt lat="45.30099" lon="4.4529">
        <ele>1127.76</ele>
        <time>2018-10-18T12:51:00Z</time>
      </trkpt>
      <trkpt lat="45.3009" lon="4.45284">
        <ele>1129.21</ele>
        <time>2018-10-18T12:51:14Z</time>
      </trkpt>
      <trkpt lat="45.30079" lon="4.45278">
        <ele>1130.17</ele>
        <time>2018-10-18T12:51:31Z</time>
      </trkpt>
      <trkpt lat="45.30067" lon="4.45269">
        <ele>1131.13</ele>
        <time>2018-10-18T12:51:49Z</time>
      </trkpt>
      <trkpt lat="45.30057" lon="4.4526">
        <ele>1132.57</ele>
        <time>2018-10-18T12:52:08Z</time>
      </trkpt>
      <trkpt lat="45.30047" lon="4.45243">
        <ele>1133.05</ele>
        <time>2018-10-18T12:52:28Z</time>
      </trkpt>
      <trkpt lat="45.30038" lon="4.4523">
        <ele>1133.53</ele>
        <time>2018-10-18T12:52:43Z</time>
      </trkpt>
      <trkpt lat="45.30029" lon="4.45211">
        <ele>1134.01</ele>
        <time>2018-10-18T12:53:01Z</time>
      </trkpt>
      <trkpt lat="45.30026" lon="4.45192">
        <ele>1133.53</ele>
        <time>2018-10-18T12:53:17Z</time>
      </trkpt>
      <trkpt lat="45.3002" lon="4.45176">
        <ele>1134.01</ele>
        <time>2018-10-18T12:53:32Z</time>
      </trkpt>
      <trkpt lat="45.30018" lon="4.4517">
        <ele>1133.53</ele>
        <time>2018-10-18T12:53:48Z</time>
      </trkpt>
      <trkpt lat="45.30022" lon="4.45165">
        <ele>1134.01</ele>
        <time>2018-10-18T12:54:02Z</time>
      </trkpt>
      <trkpt lat="45.30022" lon="4.45166">
        <ele>1133.05</ele>
        <time>2018-10-18T12:54:18Z</time>
      </trkpt>
      <trkpt lat="45.30024" lon="4.45171">
        <ele>1133.53</ele>
        <time>2018-10-18T12:54:38Z</time>
      </trkpt>
      <trkpt lat="45.30022" lon="4.45169">
        <ele>1134.49</ele>
        <time>2018-10-18T12:54:52Z</time>
      </trkpt>
      <trkpt lat="45.30023" lon="4.45166">
        <ele>1134.01</ele>
        <time>2018-10-18T12:55:11Z</time>
      </trkpt>
      <trkpt lat="45.30022" lon="4.45166">
        <ele>1133.53</ele>
        <time>2018-10-18T12:55:38Z</time>
      </trkpt>
      <trkpt lat="45.30026" lon="4.45166">
        <ele>1134.01</ele>
        <time>2018-10-18T12:56:08Z</time>
      </trkpt>
      <trkpt lat="45.30024" lon="4.45162">
        <ele>1133.53</ele>
        <time>2018-10-18T12:56:27Z</time>
      </trkpt>
      <trkpt lat="45.30024" lon="4.45153">
        <ele>1133.53</ele>
        <time>2018-10-18T12:56:45Z</time>
      </trkpt>
      <trkpt lat="45.30026" lon="4.45147">
        <ele>1132.57</ele>
        <time>2018-10-18T12:56:49Z</time>
      </trkpt>
      <trkpt lat="45.30034" lon="4.45112">
        <ele>1132.57</ele>
        <time>2018-10-18T12:57:12Z</time>
      </trkpt>
      <trkpt lat="45.30036" lon="4.45105">
        <ele>1132.57</ele>
        <time>2018-10-18T12:57:17Z</time>
      </trkpt>
      <trkpt lat="45.30042" lon="4.45088">
        <ele>1133.53</ele>
        <time>2018-10-18T12:57:35Z</time>
      </trkpt>
      <trkpt lat="45.30047" lon="4.4507">
        <ele>1133.05</ele>
        <time>2018-10-18T12:57:49Z</time>
      </trkpt>
      <trkpt lat="45.30049" lon="4.45052">
        <ele>1133.05</ele>
        <time>2018-10-18T12:58:04Z</time>
      </trkpt>
      <trkpt lat="45.30049" lon="4.45027">
        <ele>1134.01</ele>
        <time>2018-10-18T12:58:21Z</time>
      </trkpt>
      <trkpt lat="45.30048" lon="4.45009">
        <ele>1134.97</ele>
        <time>2018-10-18T12:58:38Z</time>
      </trkpt>
      <trkpt lat="45.30046" lon="4.44999">
        <ele>1134.97</ele>
        <time>2018-10-18T12:58:53Z</time>
      </trkpt>
      <trkpt lat="45.30046" lon="4.44979">
        <ele>1135.94</ele>
        <time>2018-10-18T12:59:09Z</time>
      </trkpt>
      <trkpt lat="45.30045" lon="4.4496">
        <ele>1137.38</ele>
        <time>2018-10-18T12:59:25Z</time>
      </trkpt>
      <trkpt lat="45.30045" lon="4.44949">
        <ele>1138.82</ele>
        <time>2018-10-18T12:59:39Z</time>
      </trkpt>
      <trkpt lat="45.30043" lon="4.44942">
        <ele>1139.78</ele>
        <time>2018-10-18T12:59:53Z</time>
      </trkpt>
      <trkpt lat="45.30045" lon="4.44927">
        <ele>1140.74</ele>
        <time>2018-10-18T13:00:08Z</time>
      </trkpt>
      <trkpt lat="45.3005" lon="4.44922">
        <ele>1141.22</ele>
        <time>2018-10-18T13:00:25Z</time>
      </trkpt>
      <trkpt lat="45.30061" lon="4.44914">
        <ele>1143.63</ele>
        <time>2018-10-18T13:00:41Z</time>
      </trkpt>
      <trkpt lat="45.3007" lon="4.44906">
        <ele>1146.03</ele>
        <time>2018-10-18T13:00:58Z</time>
      </trkpt>
      <trkpt lat="45.30085" lon="4.44897">
        <ele>1147.95</ele>
        <time>2018-10-18T13:01:18Z</time>
      </trkpt>
      <trkpt lat="45.30091" lon="4.44891">
        <ele>1149.39</ele>
        <time>2018-10-18T13:01:34Z</time>
      </trkpt>
      <trkpt lat="45.30094" lon="4.44892">
        <ele>1149.39</ele>
        <time>2018-10-18T13:02:03Z</time>
      </trkpt>
      <trkpt lat="45.3009" lon="4.44891">
        <ele>1149.87</ele>
        <time>2018-10-18T13:02:29Z</time>
      </trkpt>
      <trkpt lat="45.30091" lon="4.44871">
        <ele>1150.35</ele>
        <time>2018-10-18T13:02:48Z</time>
      </trkpt>
      <trkpt lat="45.30088" lon="4.44855">
        <ele>1151.8</ele>
        <time>2018-10-18T13:03:04Z</time>
      </trkpt>
      <trkpt lat="45.30088" lon="4.44843">
        <ele>1152.28</ele>
        <time>2018-10-18T13:03:18Z</time>
      </trkpt>
      <trkpt lat="45.30084" lon="4.44822">
        <ele>1153.24</ele>
        <time>2018-10-18T13:03:34Z</time>
      </trkpt>
      <trkpt lat="45.30083" lon="4.44819">
        <ele>1153.72</ele>
        <time>2018-10-18T13:03:51Z</time>
      </trkpt>
      <trkpt lat="45.3009" lon="4.44808">
        <ele>1154.68</ele>
        <time>2018-10-18T13:04:09Z</time>
      </trkpt>
      <trkpt lat="45.30097" lon="4.44817">
        <ele>1155.16</ele>
        <time>2018-10-18T13:04:28Z</time>
      </trkpt>
      <trkpt lat="45.30104" lon="4.44824">
        <ele>1155.64</ele>
        <time>2018-10-18T13:04:46Z</time>
      </trkpt>
      <trkpt lat="45.30115" lon="4.44833">
        <ele>1156.12</ele>
        <time>2018-10-18T13:05:07Z</time>
      </trkpt>
      <trkpt lat="45.30113" lon="4.44837">
        <ele>1155.64</ele>
        <time>2018-10-18T13:05:26Z</time>
      </trkpt>
      <trkpt lat="45.30116" lon="4.4484">
        <ele>1155.64</ele>
        <time>2018-10-18T13:05:48Z</time>
      </trkpt>
      <trkpt lat="45.30121" lon="4.44842">
        <ele>1156.6</ele>
        <time>2018-10-18T13:06:07Z</time>
      </trkpt>
      <trkpt lat="45.30124" lon="4.4484">
        <ele>1157.08</ele>
        <time>2018-10-18T13:06:25Z</time>
      </trkpt>
      <trkpt lat="45.30123" lon="4.44841">
        <ele>1157.08</ele>
        <time>2018-10-18T13:06:43Z</time>
      </trkpt>
      <trkpt lat="45.30126" lon="4.44837">
        <ele>1157.08</ele>
        <time>2018-10-18T13:07:08Z</time>
      </trkpt>
      <trkpt lat="45.30134" lon="4.44839">
        <ele>1157.56</ele>
        <time>2018-10-18T13:07:24Z</time>
      </trkpt>
      <trkpt lat="45.3014" lon="4.44838">
        <ele>1158.05</ele>
        <time>2018-10-18T13:07:42Z</time>
      </trkpt>
      <trkpt lat="45.3015" lon="4.44833">
        <ele>1159.49</ele>
        <time>2018-10-18T13:07:58Z</time>
      </trkpt>
      <trkpt lat="45.30163" lon="4.4483">
        <ele>1161.41</ele>
        <time>2018-10-18T13:08:16Z</time>
      </trkpt>
      <trkpt lat="45.30171" lon="4.44825">
        <ele>1162.37</ele>
        <time>2018-10-18T13:08:32Z</time>
      </trkpt>
      <trkpt lat="45.30181" lon="4.44822">
        <ele>1163.81</ele>
        <time>2018-10-18T13:08:48Z</time>
      </trkpt>
      <trkpt lat="45.30191" lon="4.44818">
        <ele>1165.74</ele>
        <time>2018-10-18T13:09:05Z</time>
      </trkpt>
      <trkpt lat="45.30201" lon="4.44824">
        <ele>1167.66</ele>
        <time>2018-10-18T13:09:21Z</time>
      </trkpt>
      <trkpt lat="45.30212" lon="4.44828">
        <ele>1169.58</ele>
        <time>2018-10-18T13:09:42Z</time>
      </trkpt>
      <trkpt lat="45.30223" lon="4.44834">
        <ele>1171.5</ele>
        <time>2018-10-18T13:09:59Z</time>
      </trkpt>
      <trkpt lat="45.30231" lon="4.44844">
        <ele>1171.5</ele>
        <time>2018-10-18T13:10:18Z</time>
      </trkpt>
      <trkpt lat="45.30233" lon="4.44849">
        <ele>1171.5</ele>
        <time>2018-10-18T13:10:37Z</time>
      </trkpt>
      <trkpt lat="45.30241" lon="4.44854">
        <ele>1171.98</ele>
        <time>2018-10-18T13:10:57Z</time>
      </trkpt>
      <trkpt lat="45.30242" lon="4.44855">
        <ele>1171.98</ele>
        <time>2018-10-18T13:11:24Z</time>
      </trkpt>
      <trkpt lat="45.30252" lon="4.44859">
        <ele>1171.5</ele>
        <time>2018-10-18T13:11:50Z</time>
      </trkpt>
      <trkpt lat="45.30268" lon="4.44862">
        <ele>1172.95</ele>
        <time>2018-10-18T13:12:07Z</time>
      </trkpt>
      <trkpt lat="45.30279" lon="4.44866">
        <ele>1173.91</ele>
        <time>2018-10-18T13:12:23Z</time>
      </trkpt>
      <trkpt lat="45.30293" lon="4.44871">
        <ele>1175.83</ele>
        <time>2018-10-18T13:12:39Z</time>
      </trkpt>
      <trkpt lat="45.30297" lon="4.44874">
        <ele>1176.31</ele>
        <time>2018-10-18T13:12:57Z</time>
      </trkpt>
      <trkpt lat="45.30308" lon="4.44876">
        <ele>1177.27</ele>
        <time>2018-10-18T13:13:14Z</time>
      </trkpt>
      <trkpt lat="45.3032" lon="4.44879">
        <ele>1178.71</ele>
        <time>2018-10-18T13:13:30Z</time>
      </trkpt>
      <trkpt lat="45.3033" lon="4.4488">
        <ele>1180.64</ele>
        <time>2018-10-18T13:13:45Z</time>
      </trkpt>
      <trkpt lat="45.30342" lon="4.4488">
        <ele>1183.04</ele>
        <time>2018-10-18T13:14:02Z</time>
      </trkpt>
      <trkpt lat="45.30344" lon="4.44878">
        <ele>1183.52</ele>
        <time>2018-10-18T13:14:19Z</time>
      </trkpt>
      <trkpt lat="45.30359" lon="4.44888">
        <ele>1184.48</ele>
        <time>2018-10-18T13:14:36Z</time>
      </trkpt>
      <trkpt lat="45.30372" lon="4.44897">
        <ele>1184.48</ele>
        <time>2018-10-18T13:14:53Z</time>
      </trkpt>
      <trkpt lat="45.30387" lon="4.44909">
        <ele>1184.48</ele>
        <time>2018-10-18T13:15:14Z</time>
      </trkpt>
      <trkpt lat="45.30397" lon="4.44914">
        <ele>1185.92</ele>
        <time>2018-10-18T13:15:29Z</time>
      </trkpt>
      <trkpt lat="45.3041" lon="4.44922">
        <ele>1187.37</ele>
        <time>2018-10-18T13:15:47Z</time>
      </trkpt>
      <trkpt lat="45.30415" lon="4.44928">
        <ele>1188.33</ele>
        <time>2018-10-18T13:16:05Z</time>
      </trkpt>
      <trkpt lat="45.30422" lon="4.44931">
        <ele>1188.81</ele>
        <time>2018-10-18T13:16:22Z</time>
      </trkpt>
      <trkpt lat="45.30435" lon="4.44937">
        <ele>1190.25</ele>
        <time>2018-10-18T13:16:42Z</time>
      </trkpt>
      <trkpt lat="45.30444" lon="4.44942">
        <ele>1190.73</ele>
        <time>2018-10-18T13:16:58Z</time>
      </trkpt>
      <trkpt lat="45.30455" lon="4.44947">
        <ele>1191.69</ele>
        <time>2018-10-18T13:17:15Z</time>
      </trkpt>
      <trkpt lat="45.30465" lon="4.44954">
        <ele>1193.13</ele>
        <time>2018-10-18T13:17:33Z</time>
      </trkpt>
      <trkpt lat="45.30477" lon="4.44959">
        <ele>1195.54</ele>
        <time>2018-10-18T13:17:52Z</time>
      </trkpt>
      <trkpt lat="45.30489" lon="4.44965">
        <ele>1196.5</ele>
        <time>2018-10-18T13:18:13Z</time>
      </trkpt>
      <trkpt lat="45.30498" lon="4.44977">
        <ele>1197.94</ele>
        <time>2018-10-18T13:18:32Z</time>
      </trkpt>
      <trkpt lat="45.30503" lon="4.44995">
        <ele>1199.38</ele>
        <time>2018-10-18T13:18:54Z</time>
      </trkpt>
      <trkpt lat="45.30509" lon="4.45011">
        <ele>1201.3</ele>
        <time>2018-10-18T13:19:13Z</time>
      </trkpt>
      <trkpt lat="45.30516" lon="4.45023">
        <ele>1201.79</ele>
        <time>2018-10-18T13:19:29Z</time>
      </trkpt>
      <trkpt lat="45.30524" lon="4.45039">
        <ele>1202.27</ele>
        <time>2018-10-18T13:19:47Z</time>
      </trkpt>
      <trkpt lat="45.30534" lon="4.45058">
        <ele>1201.79</ele>
        <time>2018-10-18T13:20:08Z</time>
      </trkpt>
      <trkpt lat="45.30544" lon="4.45078">
        <ele>1201.79</ele>
        <time>2018-10-18T13:20:29Z</time>
      </trkpt>
      <trkpt lat="45.30552" lon="4.45093">
        <ele>1201.3</ele>
        <time>2018-10-18T13:20:46Z</time>
      </trkpt>
      <trkpt lat="45.30561" lon="4.45111">
        <ele>1201.79</ele>
        <time>2018-10-18T13:21:05Z</time>
      </trkpt>
      <trkpt lat="45.30571" lon="4.45129">
        <ele>1202.27</ele>
        <time>2018-10-18T13:21:24Z</time>
      </trkpt>
      <trkpt lat="45.30579" lon="4.45142">
        <ele>1202.75</ele>
        <time>2018-10-18T13:21:40Z</time>
      </trkpt>
      <trkpt lat="45.30587" lon="4.45156">
        <ele>1203.23</ele>
        <time>2018-10-18T13:21:58Z</time>
      </trkpt>
      <trkpt lat="45.30599" lon="4.4518">
        <ele>1203.23</ele>
        <time>2018-10-18T13:22:21Z</time>
      </trkpt>
      <trkpt lat="45.30608" lon="4.45193">
        <ele>1204.19</ele>
        <time>2018-10-18T13:22:40Z</time>
      </trkpt>
      <trkpt lat="45.30622" lon="4.45213">
        <ele>1204.67</ele>
        <time>2018-10-18T13:23:01Z</time>
      </trkpt>
      <trkpt lat="45.30629" lon="4.45229">
        <ele>1205.63</ele>
        <time>2018-10-18T13:23:19Z</time>
      </trkpt>
      <trkpt lat="45.30638" lon="4.45245">
        <ele>1204.67</ele>
        <time>2018-10-18T13:23:38Z</time>
      </trkpt>
      <trkpt lat="45.30644" lon="4.45256">
        <ele>1204.67</ele>
        <time>2018-10-18T13:24:00Z</time>
      </trkpt>
      <trkpt lat="45.30659" lon="4.45269">
        <ele>1204.67</ele>
        <time>2018-10-18T13:24:21Z</time>
      </trkpt>
      <trkpt lat="45.30675" lon="4.45277">
        <ele>1204.19</ele>
        <time>2018-10-18T13:24:44Z</time>
      </trkpt>
      <trkpt lat="45.30695" lon="4.45294">
        <ele>1203.23</ele>
        <time>2018-10-18T13:25:08Z</time>
      </trkpt>
      <trkpt lat="45.30712" lon="4.45303">
        <ele>1201.3</ele>
        <time>2018-10-18T13:25:29Z</time>
      </trkpt>
      <trkpt lat="45.30729" lon="4.45315">
        <ele>1199.38</ele>
        <time>2018-10-18T13:25:49Z</time>
      </trkpt>
      <trkpt lat="45.30746" lon="4.45322">
        <ele>1197.94</ele>
        <time>2018-10-18T13:26:10Z</time>
      </trkpt>
      <trkpt lat="45.3076" lon="4.45324">
        <ele>1196.5</ele>
        <time>2018-10-18T13:26:26Z</time>
      </trkpt>
      <trkpt lat="45.3077" lon="4.45334">
        <ele>1194.58</ele>
        <time>2018-10-18T13:26:43Z</time>
      </trkpt>
      <trkpt lat="45.3078" lon="4.45345">
        <ele>1193.61</ele>
        <time>2018-10-18T13:27:00Z</time>
      </trkpt>
      <trkpt lat="45.30791" lon="4.4536">
        <ele>1192.17</ele>
        <time>2018-10-18T13:27:18Z</time>
      </trkpt>
      <trkpt lat="45.30802" lon="4.45376">
        <ele>1190.25</ele>
        <time>2018-10-18T13:27:37Z</time>
      </trkpt>
      <trkpt lat="45.30811" lon="4.45385">
        <ele>1188.81</ele>
        <time>2018-10-18T13:27:56Z</time>
      </trkpt>
      <trkpt lat="45.30827" lon="4.454">
        <ele>1186.4</ele>
        <time>2018-10-18T13:28:17Z</time>
      </trkpt>
      <trkpt lat="45.30833" lon="4.45397">
        <ele>1186.4</ele>
        <time>2018-10-18T13:28:38Z</time>
      </trkpt>
      <trkpt lat="45.30833" lon="4.45397">
        <ele>1186.4</ele>
        <time>2018-10-18T13:29:05Z</time>
      </trkpt>
      <trkpt lat="45.30836" lon="4.45396">
        <ele>1186.4</ele>
        <time>2018-10-18T13:29:28Z</time>
      </trkpt>
      <trkpt lat="45.3084" lon="4.45397">
        <ele>1186.4</ele>
        <time>2018-10-18T13:29:54Z</time>
      </trkpt>
      <trkpt lat="45.30841" lon="4.45397">
        <ele>1186.4</ele>
        <time>2018-10-18T13:30:23Z</time>
      </trkpt>
      <trkpt lat="45.30848" lon="4.454">
        <ele>1186.88</ele>
        <time>2018-10-18T13:31:02Z</time>
      </trkpt>
      <trkpt lat="45.3085" lon="4.45404">
        <ele>1186.88</ele>
        <time>2018-10-18T13:31:36Z</time>
      </trkpt>
      <trkpt lat="45.30849" lon="4.45398">
        <ele>1186.88</ele>
        <time>2018-10-18T13:32:04Z</time>
      </trkpt>
      <trkpt lat="45.30838" lon="4.45395">
        <ele>1187.37</ele>
        <time>2018-10-18T13:32:38Z</time>
      </trkpt>
      <trkpt lat="45.30837" lon="4.45402">
        <ele>1186.88</ele>
        <time>2018-10-18T13:32:57Z</time>
      </trkpt>
      <trkpt lat="45.30835" lon="4.45395">
        <ele>1187.85</ele>
        <time>2018-10-18T13:33:20Z</time>
      </trkpt>
      <trkpt lat="45.30841" lon="4.454">
        <ele>1187.37</ele>
        <time>2018-10-18T13:33:51Z</time>
      </trkpt>
      <trkpt lat="45.30843" lon="4.45384">
        <ele>1188.33</ele>
        <time>2018-10-18T13:34:15Z</time>
      </trkpt>
      <trkpt lat="45.3084" lon="4.45359">
        <ele>1189.77</ele>
        <time>2018-10-18T13:34:38Z</time>
      </trkpt>
      <trkpt lat="45.30839" lon="4.4534">
        <ele>1190.25</ele>
        <time>2018-10-18T13:34:55Z</time>
      </trkpt>
      <trkpt lat="45.30849" lon="4.45315">
        <ele>1190.25</ele>
        <time>2018-10-18T13:35:14Z</time>
      </trkpt>
      <trkpt lat="45.30857" lon="4.45296">
        <ele>1189.77</ele>
        <time>2018-10-18T13:35:31Z</time>
      </trkpt>
      <trkpt lat="45.30866" lon="4.45273">
        <ele>1190.73</ele>
        <time>2018-10-18T13:35:49Z</time>
      </trkpt>
      <trkpt lat="45.3088" lon="4.45255">
        <ele>1190.25</ele>
        <time>2018-10-18T13:36:09Z</time>
      </trkpt>
      <trkpt lat="45.30892" lon="4.4524">
        <ele>1189.77</ele>
        <time>2018-10-18T13:36:25Z</time>
      </trkpt>
      <trkpt lat="45.30903" lon="4.45225">
        <ele>1189.77</ele>
        <time>2018-10-18T13:36:44Z</time>
      </trkpt>
      <trkpt lat="45.30908" lon="4.45222">
        <ele>1189.77</ele>
        <time>2018-10-18T13:37:05Z</time>
      </trkpt>
      <trkpt lat="45.30917" lon="4.45208">
        <ele>1188.81</ele>
        <time>2018-10-18T13:37:22Z</time>
      </trkpt>
      <trkpt lat="45.30929" lon="4.45194">
        <ele>1188.33</ele>
        <time>2018-10-18T13:37:40Z</time>
      </trkpt>
      <trkpt lat="45.30934" lon="4.45179">
        <ele>1188.81</ele>
        <time>2018-10-18T13:37:57Z</time>
      </trkpt>
      <trkpt lat="45.30928" lon="4.45167">
        <ele>1189.29</ele>
        <time>2018-10-18T13:38:17Z</time>
      </trkpt>
      <trkpt lat="45.30928" lon="4.45144">
        <ele>1191.69</ele>
        <time>2018-10-18T13:38:36Z</time>
      </trkpt>
      <trkpt lat="45.30926" lon="4.45123">
        <ele>1193.61</ele>
        <time>2018-10-18T13:38:55Z</time>
      </trkpt>
      <trkpt lat="45.30929" lon="4.451">
        <ele>1194.58</ele>
        <time>2018-10-18T13:39:13Z</time>
      </trkpt>
      <trkpt lat="45.30923" lon="4.45086">
        <ele>1196.02</ele>
        <time>2018-10-18T13:39:30Z</time>
      </trkpt>
      <trkpt lat="45.30919" lon="4.45064">
        <ele>1196.5</ele>
        <time>2018-10-18T13:39:49Z</time>
      </trkpt>
      <trkpt lat="45.3091" lon="4.45053">
        <ele>1198.42</ele>
        <time>2018-10-18T13:40:03Z</time>
      </trkpt>
      <trkpt lat="45.30903" lon="4.45037">
        <ele>1199.86</ele>
        <time>2018-10-18T13:40:19Z</time>
      </trkpt>
      <trkpt lat="45.30899" lon="4.45026">
        <ele>1200.82</ele>
        <time>2018-10-18T13:40:36Z</time>
      </trkpt>
      <trkpt lat="45.30894" lon="4.4501">
        <ele>1202.75</ele>
        <time>2018-10-18T13:40:52Z</time>
      </trkpt>
      <trkpt lat="45.30888" lon="4.44994">
        <ele>1203.23</ele>
        <time>2018-10-18T13:41:08Z</time>
      </trkpt>
      <trkpt lat="45.30882" lon="4.44974">
        <ele>1203.71</ele>
        <time>2018-10-18T13:41:25Z</time>
      </trkpt>
      <trkpt lat="45.30878" lon="4.44957">
        <ele>1204.67</ele>
        <time>2018-10-18T13:41:43Z</time>
      </trkpt>
      <trkpt lat="45.30873" lon="4.44937">
        <ele>1206.11</ele>
        <time>2018-10-18T13:41:59Z</time>
      </trkpt>
      <trkpt lat="45.3087" lon="4.44923">
        <ele>1207.07</ele>
        <time>2018-10-18T13:42:12Z</time>
      </trkpt>
      <trkpt lat="45.30869" lon="4.44902">
        <ele>1208.51</ele>
        <time>2018-10-18T13:42:30Z</time>
      </trkpt>
      <trkpt lat="45.30871" lon="4.44876">
        <ele>1208.51</ele>
        <time>2018-10-18T13:42:48Z</time>
      </trkpt>
      <trkpt lat="45.30873" lon="4.44853">
        <ele>1208.51</ele>
        <time>2018-10-18T13:43:09Z</time>
      </trkpt>
      <trkpt lat="45.30878" lon="4.44822">
        <ele>1209</ele>
        <time>2018-10-18T13:43:30Z</time>
      </trkpt>
      <trkpt lat="45.30893" lon="4.44792">
        <ele>1209.48</ele>
        <time>2018-10-18T13:43:53Z</time>
      </trkpt>
      <trkpt lat="45.30901" lon="4.44772">
        <ele>1209.96</ele>
        <time>2018-10-18T13:44:13Z</time>
      </trkpt>
      <trkpt lat="45.30904" lon="4.44766">
        <ele>1209.96</ele>
        <time>2018-10-18T13:44:21Z</time>
      </trkpt>
      <trkpt lat="45.30911" lon="4.44742">
        <ele>1210.44</ele>
        <time>2018-10-18T13:44:40Z</time>
      </trkpt>
      <trkpt lat="45.3091" lon="4.44719">
        <ele>1211.88</ele>
        <time>2018-10-18T13:44:57Z</time>
      </trkpt>
      <trkpt lat="45.30915" lon="4.44697">
        <ele>1213.32</ele>
        <time>2018-10-18T13:45:14Z</time>
      </trkpt>
      <trkpt lat="45.30927" lon="4.44683">
        <ele>1214.76</ele>
        <time>2018-10-18T13:45:31Z</time>
      </trkpt>
      <trkpt lat="45.30929" lon="4.44668">
        <ele>1217.17</ele>
        <time>2018-10-18T13:45:47Z</time>
      </trkpt>
      <trkpt lat="45.30934" lon="4.44652">
        <ele>1218.61</ele>
        <time>2018-10-18T13:46:03Z</time>
      </trkpt>
      <trkpt lat="45.30932" lon="4.4464">
        <ele>1219.09</ele>
        <time>2018-10-18T13:46:20Z</time>
      </trkpt>
      <trkpt lat="45.30932" lon="4.44638">
        <ele>1219.09</ele>
        <time>2018-10-18T13:46:38Z</time>
      </trkpt>
      <trkpt lat="45.30944" lon="4.44645">
        <ele>1218.61</ele>
        <time>2018-10-18T13:46:59Z</time>
      </trkpt>
      <trkpt lat="45.30959" lon="4.44649">
        <ele>1217.65</ele>
        <time>2018-10-18T13:47:17Z</time>
      </trkpt>
      <trkpt lat="45.30967" lon="4.44653">
        <ele>1218.13</ele>
        <time>2018-10-18T13:47:32Z</time>
      </trkpt>
      <trkpt lat="45.3097" lon="4.44654">
        <ele>1218.13</ele>
        <time>2018-10-18T13:47:59Z</time>
      </trkpt>
      <trkpt lat="45.3098" lon="4.44662">
        <ele>1216.69</ele>
        <time>2018-10-18T13:48:15Z</time>
      </trkpt>
      <trkpt lat="45.31001" lon="4.44671">
        <ele>1215.24</ele>
        <time>2018-10-18T13:48:35Z</time>
      </trkpt>
      <trkpt lat="45.31022" lon="4.44679">
        <ele>1213.8</ele>
        <time>2018-10-18T13:48:53Z</time>
      </trkpt>
      <trkpt lat="45.3105" lon="4.44679">
        <ele>1213.32</ele>
        <time>2018-10-18T13:49:16Z</time>
      </trkpt>
      <trkpt lat="45.31065" lon="4.44696">
        <ele>1212.84</ele>
        <time>2018-10-18T13:49:36Z</time>
      </trkpt>
      <trkpt lat="45.31072" lon="4.447">
        <ele>1212.36</ele>
        <time>2018-10-18T13:49:56Z</time>
      </trkpt>
      <trkpt lat="45.3108" lon="4.44708">
        <ele>1211.88</ele>
        <time>2018-10-18T13:50:11Z</time>
      </trkpt>
      <trkpt lat="45.31097" lon="4.44717">
        <ele>1210.92</ele>
        <time>2018-10-18T13:50:27Z</time>
      </trkpt>
      <trkpt lat="45.31117" lon="4.44726">
        <ele>1209.48</ele>
        <time>2018-10-18T13:50:46Z</time>
      </trkpt>
      <trkpt lat="45.31135" lon="4.44737">
        <ele>1208.03</ele>
        <time>2018-10-18T13:51:06Z</time>
      </trkpt>
      <trkpt lat="45.31154" lon="4.44745">
        <ele>1207.55</ele>
        <time>2018-10-18T13:51:24Z</time>
      </trkpt>
      <trkpt lat="45.31177" lon="4.44753">
        <ele>1207.07</ele>
        <time>2018-10-18T13:51:43Z</time>
      </trkpt>
      <trkpt lat="45.31197" lon="4.44765">
        <ele>1207.55</ele>
        <time>2018-10-18T13:52:02Z</time>
      </trkpt>
      <trkpt lat="45.31215" lon="4.44769">
        <ele>1209</ele>
        <time>2018-10-18T13:52:21Z</time>
      </trkpt>
      <trkpt lat="45.31231" lon="4.44775">
        <ele>1209.48</ele>
        <time>2018-10-18T13:52:38Z</time>
      </trkpt>
      <trkpt lat="45.31236" lon="4.44753">
        <ele>1210.44</ele>
        <time>2018-10-18T13:52:59Z</time>
      </trkpt>
      <trkpt lat="45.31238" lon="4.4474">
        <ele>1209.96</ele>
        <time>2018-10-18T13:53:15Z</time>
      </trkpt>
      <trkpt lat="45.31233" lon="4.44758">
        <ele>1209.96</ele>
        <time>2018-10-18T13:53:31Z</time>
      </trkpt>
      <trkpt lat="45.31232" lon="4.44765">
        <ele>1209.48</ele>
        <time>2018-10-18T13:53:50Z</time>
      </trkpt>
      <trkpt lat="45.31235" lon="4.44767">
        <ele>1209.96</ele>
        <time>2018-10-18T13:54:13Z</time>
      </trkpt>
      <trkpt lat="45.3124" lon="4.44771">
        <ele>1209.48</ele>
        <time>2018-10-18T13:54:29Z</time>
      </trkpt>
      <trkpt lat="45.31239" lon="4.4477">
        <ele>1210.92</ele>
        <time>2018-10-18T13:54:44Z</time>
      </trkpt>
      <trkpt lat="45.3124" lon="4.44773">
        <ele>1209.96</ele>
        <time>2018-10-18T13:55:19Z</time>
      </trkpt>
      <trkpt lat="45.31254" lon="4.44783">
        <ele>1211.4</ele>
        <time>2018-10-18T13:55:37Z</time>
      </trkpt>
      <trkpt lat="45.31277" lon="4.44793">
        <ele>1212.36</ele>
        <time>2018-10-18T13:55:56Z</time>
      </trkpt>
      <trkpt lat="45.31297" lon="4.44805">
        <ele>1212.36</ele>
        <time>2018-10-18T13:56:17Z</time>
      </trkpt>
      <trkpt lat="45.31311" lon="4.44813">
        <ele>1210.92</ele>
        <time>2018-10-18T13:56:34Z</time>
      </trkpt>
      <trkpt lat="45.31326" lon="4.44818">
        <ele>1210.92</ele>
        <time>2018-10-18T13:56:51Z</time>
      </trkpt>
      <trkpt lat="45.31341" lon="4.44822">
        <ele>1209.48</ele>
        <time>2018-10-18T13:57:04Z</time>
      </trkpt>
      <trkpt lat="45.31355" lon="4.44834">
        <ele>1208.03</ele>
        <time>2018-10-18T13:57:19Z</time>
      </trkpt>
      <trkpt lat="45.31375" lon="4.44845">
        <ele>1206.59</ele>
        <time>2018-10-18T13:57:39Z</time>
      </trkpt>
      <trkpt lat="45.31398" lon="4.44855">
        <ele>1205.15</ele>
        <time>2018-10-18T13:57:59Z</time>
      </trkpt>
      <trkpt lat="45.31413" lon="4.4486">
        <ele>1202.75</ele>
        <time>2018-10-18T13:58:18Z</time>
      </trkpt>
      <trkpt lat="45.31426" lon="4.44874">
        <ele>1200.34</ele>
        <time>2018-10-18T13:58:34Z</time>
      </trkpt>
      <trkpt lat="45.31437" lon="4.44887">
        <ele>1197.46</ele>
        <time>2018-10-18T13:58:52Z</time>
      </trkpt>
      <trkpt lat="45.31442" lon="4.44904">
        <ele>1194.58</ele>
        <time>2018-10-18T13:59:09Z</time>
      </trkpt>
      <trkpt lat="45.3145" lon="4.44914">
        <ele>1192.65</ele>
        <time>2018-10-18T13:59:25Z</time>
      </trkpt>
      <trkpt lat="45.31459" lon="4.44922">
        <ele>1190.73</ele>
        <time>2018-10-18T13:59:40Z</time>
      </trkpt>
      <trkpt lat="45.31465" lon="4.44938">
        <ele>1187.85</ele>
        <time>2018-10-18T13:59:55Z</time>
      </trkpt>
      <trkpt lat="45.31479" lon="4.44938">
        <ele>1186.4</ele>
        <time>2018-10-18T14:00:11Z</time>
      </trkpt>
      <trkpt lat="45.31491" lon="4.44943">
        <ele>1184.96</ele>
        <time>2018-10-18T14:00:27Z</time>
      </trkpt>
      <trkpt lat="45.31499" lon="4.44955">
        <ele>1183.52</ele>
        <time>2018-10-18T14:00:43Z</time>
      </trkpt>
      <trkpt lat="45.31498" lon="4.44965">
        <ele>1182.56</ele>
        <time>2018-10-18T14:00:52Z</time>
      </trkpt>
      <trkpt lat="45.31498" lon="4.44984">
        <ele>1181.12</ele>
        <time>2018-10-18T14:01:08Z</time>
      </trkpt>
      <trkpt lat="45.31508" lon="4.44999">
        <ele>1179.19</ele>
        <time>2018-10-18T14:01:25Z</time>
      </trkpt>
      <trkpt lat="45.31519" lon="4.45014">
        <ele>1177.75</ele>
        <time>2018-10-18T14:01:41Z</time>
      </trkpt>
      <trkpt lat="45.31535" lon="4.45021">
        <ele>1175.83</ele>
        <time>2018-10-18T14:01:58Z</time>
      </trkpt>
      <trkpt lat="45.31542" lon="4.45032">
        <ele>1174.87</ele>
        <time>2018-10-18T14:02:11Z</time>
      </trkpt>
      <trkpt lat="45.31548" lon="4.45039">
        <ele>1172.95</ele>
        <time>2018-10-18T14:02:25Z</time>
      </trkpt>
      <trkpt lat="45.31559" lon="4.45053">
        <ele>1170.54</ele>
        <time>2018-10-18T14:02:42Z</time>
      </trkpt>
      <trkpt lat="45.31573" lon="4.45066">
        <ele>1167.66</ele>
        <time>2018-10-18T14:03:01Z</time>
      </trkpt>
      <trkpt lat="45.31587" lon="4.45066">
        <ele>1166.7</ele>
        <time>2018-10-18T14:03:16Z</time>
      </trkpt>
      <trkpt lat="45.31592" lon="4.45069">
        <ele>1165.74</ele>
        <time>2018-10-18T14:03:31Z</time>
      </trkpt>
      <trkpt lat="45.31607" lon="4.45077">
        <ele>1162.37</ele>
        <time>2018-10-18T14:03:49Z</time>
      </trkpt>
      <trkpt lat="45.31619" lon="4.45088">
        <ele>1159.01</ele>
        <time>2018-10-18T14:04:07Z</time>
      </trkpt>
      <trkpt lat="45.31636" lon="4.45095">
        <ele>1157.08</ele>
        <time>2018-10-18T14:04:23Z</time>
      </trkpt>
      <trkpt lat="45.31656" lon="4.45084">
        <ele>1153.72</ele>
        <time>2018-10-18T14:04:42Z</time>
      </trkpt>
      <trkpt lat="45.31669" lon="4.45067">
        <ele>1151.8</ele>
        <time>2018-10-18T14:05:00Z</time>
      </trkpt>
      <trkpt lat="45.31677" lon="4.45063">
        <ele>1150.35</ele>
        <time>2018-10-18T14:05:10Z</time>
      </trkpt>
      <trkpt lat="45.31678" lon="4.45074">
        <ele>1149.39</ele>
        <time>2018-10-18T14:05:28Z</time>
      </trkpt>
      <trkpt lat="45.31675" lon="4.45086">
        <ele>1148.43</ele>
        <time>2018-10-18T14:05:35Z</time>
      </trkpt>
      <trkpt lat="45.3167" lon="4.45114">
        <ele>1147.95</ele>
        <time>2018-10-18T14:05:52Z</time>
      </trkpt>
      <trkpt lat="45.31674" lon="4.45134">
        <ele>1146.99</ele>
        <time>2018-10-18T14:06:07Z</time>
      </trkpt>
      <trkpt lat="45.31667" lon="4.4515">
        <ele>1147.47</ele>
        <time>2018-10-18T14:06:23Z</time>
      </trkpt>
      <trkpt lat="45.31657" lon="4.45167">
        <ele>1148.43</ele>
        <time>2018-10-18T14:06:39Z</time>
      </trkpt>
      <trkpt lat="45.31651" lon="4.45186">
        <ele>1149.39</ele>
        <time>2018-10-18T14:06:53Z</time>
      </trkpt>
      <trkpt lat="45.31644" lon="4.45197">
        <ele>1149.39</ele>
        <time>2018-10-18T14:07:03Z</time>
      </trkpt>
      <trkpt lat="45.31631" lon="4.45218">
        <ele>1150.35</ele>
        <time>2018-10-18T14:07:21Z</time>
      </trkpt>
      <trkpt lat="45.3162" lon="4.45241">
        <ele>1149.87</ele>
        <time>2018-10-18T14:07:40Z</time>
      </trkpt>
      <trkpt lat="45.31612" lon="4.45261">
        <ele>1150.35</ele>
        <time>2018-10-18T14:07:55Z</time>
      </trkpt>
      <trkpt lat="45.31603" lon="4.45286">
        <ele>1150.35</ele>
        <time>2018-10-18T14:08:13Z</time>
      </trkpt>
      <trkpt lat="45.31597" lon="4.45311">
        <ele>1150.35</ele>
        <time>2018-10-18T14:08:30Z</time>
      </trkpt>
      <trkpt lat="45.31581" lon="4.45332">
        <ele>1150.84</ele>
        <time>2018-10-18T14:08:54Z</time>
      </trkpt>
      <trkpt lat="45.31566" lon="4.45349">
        <ele>1151.8</ele>
        <time>2018-10-18T14:09:14Z</time>
      </trkpt>
      <trkpt lat="45.31551" lon="4.45365">
        <ele>1152.76</ele>
        <time>2018-10-18T14:09:31Z</time>
      </trkpt>
      <trkpt lat="45.31544" lon="4.45386">
        <ele>1153.72</ele>
        <time>2018-10-18T14:09:48Z</time>
      </trkpt>
      <trkpt lat="45.31541" lon="4.45408">
        <ele>1153.72</ele>
        <time>2018-10-18T14:10:04Z</time>
      </trkpt>
      <trkpt lat="45.31528" lon="4.45418">
        <ele>1153.72</ele>
        <time>2018-10-18T14:10:19Z</time>
      </trkpt>
      <trkpt lat="45.31517" lon="4.45433">
        <ele>1154.68</ele>
        <time>2018-10-18T14:10:35Z</time>
      </trkpt>
      <trkpt lat="45.31505" lon="4.45453">
        <ele>1154.2</ele>
        <time>2018-10-18T14:10:52Z</time>
      </trkpt>
      <trkpt lat="45.31493" lon="4.45464">
        <ele>1154.2</ele>
        <time>2018-10-18T14:11:08Z</time>
      </trkpt>
      <trkpt lat="45.31483" lon="4.4548">
        <ele>1154.68</ele>
        <time>2018-10-18T14:11:25Z</time>
      </trkpt>
      <trkpt lat="45.3148" lon="4.45508">
        <ele>1153.24</ele>
        <time>2018-10-18T14:11:43Z</time>
      </trkpt>
      <trkpt lat="45.31474" lon="4.45532">
        <ele>1153.72</ele>
        <time>2018-10-18T14:11:59Z</time>
      </trkpt>
      <trkpt lat="45.31472" lon="4.45549">
        <ele>1153.24</ele>
        <time>2018-10-18T14:12:16Z</time>
      </trkpt>
      <trkpt lat="45.31462" lon="4.45567">
        <ele>1152.76</ele>
        <time>2018-10-18T14:12:33Z</time>
      </trkpt>
      <trkpt lat="45.31454" lon="4.45591">
        <ele>1152.76</ele>
        <time>2018-10-18T14:12:49Z</time>
      </trkpt>
      <trkpt lat="45.31445" lon="4.45609">
        <ele>1152.28</ele>
        <time>2018-10-18T14:13:05Z</time>
      </trkpt>
      <trkpt lat="45.31435" lon="4.45632">
        <ele>1152.28</ele>
        <time>2018-10-18T14:13:23Z</time>
      </trkpt>
      <trkpt lat="45.31425" lon="4.45659">
        <ele>1151.8</ele>
        <time>2018-10-18T14:13:39Z</time>
      </trkpt>
      <trkpt lat="45.31422" lon="4.45694">
        <ele>1151.32</ele>
        <time>2018-10-18T14:14:00Z</time>
      </trkpt>
      <trkpt lat="45.3142" lon="4.45713">
        <ele>1150.84</ele>
        <time>2018-10-18T14:14:11Z</time>
      </trkpt>
      <trkpt lat="45.31419" lon="4.45745">
        <ele>1150.35</ele>
        <time>2018-10-18T14:14:32Z</time>
      </trkpt>
      <trkpt lat="45.31416" lon="4.45761">
        <ele>1150.35</ele>
        <time>2018-10-18T14:14:43Z</time>
      </trkpt>
      <trkpt lat="45.31418" lon="4.45789">
        <ele>1150.84</ele>
        <time>2018-10-18T14:15:02Z</time>
      </trkpt>
      <trkpt lat="45.31418" lon="4.45815">
        <ele>1150.84</ele>
        <time>2018-10-18T14:15:18Z</time>
      </trkpt>
      <trkpt lat="45.3142" lon="4.45842">
        <ele>1150.84</ele>
        <time>2018-10-18T14:15:36Z</time>
      </trkpt>
      <trkpt lat="45.31419" lon="4.4587">
        <ele>1151.32</ele>
        <time>2018-10-18T14:15:54Z</time>
      </trkpt>
      <trkpt lat="45.31419" lon="4.45895">
        <ele>1152.28</ele>
        <time>2018-10-18T14:16:11Z</time>
      </trkpt>
      <trkpt lat="45.31418" lon="4.45918">
        <ele>1152.76</ele>
        <time>2018-10-18T14:16:28Z</time>
      </trkpt>
      <trkpt lat="45.31418" lon="4.45924">
        <ele>1153.24</ele>
        <time>2018-10-18T14:16:46Z</time>
      </trkpt>
      <trkpt lat="45.31421" lon="4.45922">
        <ele>1152.76</ele>
        <time>2018-10-18T14:17:15Z</time>
      </trkpt>
      <trkpt lat="45.31421" lon="4.45924">
        <ele>1153.24</ele>
        <time>2018-10-18T14:17:35Z</time>
      </trkpt>
      <trkpt lat="45.31421" lon="4.45924">
        <ele>1153.24</ele>
        <time>2018-10-18T14:18:00Z</time>
      </trkpt>
      <trkpt lat="45.31425" lon="4.45923">
        <ele>1153.24</ele>
        <time>2018-10-18T14:18:35Z</time>
      </trkpt>
      <trkpt lat="45.3143" lon="4.45927">
        <ele>1153.72</ele>
        <time>2018-10-18T14:18:50Z</time>
      </trkpt>
      <trkpt lat="45.31443" lon="4.45914">
        <ele>1154.2</ele>
        <time>2018-10-18T14:19:06Z</time>
      </trkpt>
      <trkpt lat="45.31463" lon="4.45899">
        <ele>1154.68</ele>
        <time>2018-10-18T14:19:28Z</time>
      </trkpt>
      <trkpt lat="45.31485" lon="4.45891">
        <ele>1155.16</ele>
        <time>2018-10-18T14:19:48Z</time>
      </trkpt>
      <trkpt lat="45.31506" lon="4.45873">
        <ele>1154.2</ele>
        <time>2018-10-18T14:20:11Z</time>
      </trkpt>
      <trkpt lat="45.31497" lon="4.45851">
        <ele>1152.28</ele>
        <time>2018-10-18T14:20:28Z</time>
      </trkpt>
      <trkpt lat="45.31495" lon="4.45848">
        <ele>1152.76</ele>
        <time>2018-10-18T14:20:42Z</time>
      </trkpt>
      <trkpt lat="45.31495" lon="4.45848">
        <ele>1152.76</ele>
        <time>2018-10-18T14:21:08Z</time>
      </trkpt>
      <trkpt lat="45.31496" lon="4.45849">
        <ele>1152.76</ele>
        <time>2018-10-18T14:21:39Z</time>
      </trkpt>
    </trkseg>
  </trk>
</gpx>